CPA150D YBBN-VHHH
Flight info
| Callsign | CPA150D |
|---|---|
| Flight time | 8h 10m |
| Altitude | 38000 |
| Route | WACKO V250 IBUNA Q473 IGUPI V129 EML DCT 21S145E 17S143E 13S141E/N0487F400 DCT OPABA B473 DAO W8 MCT W11 MIA W16 AVMUP A461 NOMAN V533 BETTY |
| Aircraft | A359/H-SABDE2E3GHIJ1J2J3J4J5LM1OP2RVWXYZ/LB1D1G1 |
Departure
| Time | 2026-05-07 03:01 |
|---|---|
| Airport | Brisbane International Airport (YBBN) |
Arrival
| Time | 2026-05-07 11:11 |
|---|---|
| Airport | Hong Kong International Airport (VHHH) |
| Time | Latitude | Longitude | Altitude | Speed | Heading |
|---|---|---|---|---|---|
| 2026-05-07 02:30 | -27.40351 | 153.11136 | 24 ft | 0 kts | 298° |
| 2026-05-07 02:41 | -27.40359 | 153.11152 | 29 ft | 2 kts | 304° |
| 2026-05-07 02:42 | -27.40369 | 153.11167 | 29 ft | 2 kts | 310° |
| 2026-05-07 02:42 | -27.40381 | 153.11180 | 29 ft | 2 kts | 322° |
| 2026-05-07 02:42 | -27.40395 | 153.11189 | 29 ft | 2 kts | 342° |
| 2026-05-07 02:42 | -27.40411 | 153.11192 | 29 ft | 2 kts | 7° |
| 2026-05-07 02:43 | -27.40425 | 153.11188 | 29 ft | 1 kts | 25° |
| 2026-05-07 02:43 | -27.40428 | 153.11186 | 29 ft | 0 kts | 26° |
| 2026-05-07 02:45 | -27.40407 | 153.11198 | 29 ft | 7 kts | 26° |
| 2026-05-07 02:46 | -27.40344 | 153.11233 | 28 ft | 13 kts | 26° |
| 2026-05-07 02:46 | -27.40261 | 153.11287 | 26 ft | 15 kts | 30° |
| 2026-05-07 02:46 | -27.40194 | 153.11353 | 28 ft | 11 kts | 67° |
| 2026-05-07 02:46 | -27.40210 | 153.11432 | 29 ft | 11 kts | 111° |
| 2026-05-07 02:47 | -27.40190 | 153.11503 | 28 ft | 11 kts | 36° |
| 2026-05-07 02:47 | -27.40118 | 153.11548 | 25 ft | 13 kts | 26° |
| 2026-05-07 02:47 | -27.40036 | 153.11595 | 28 ft | 14 kts | 27° |
| 2026-05-07 02:47 | -27.39945 | 153.11647 | 29 ft | 16 kts | 27° |
| 2026-05-07 02:48 | -27.39844 | 153.11704 | 27 ft | 17 kts | 27° |
| 2026-05-07 02:48 | -27.39735 | 153.11766 | 27 ft | 18 kts | 27° |
| 2026-05-07 02:48 | -27.39619 | 153.11833 | 30 ft | 19 kts | 27° |
| 2026-05-07 02:48 | -27.39497 | 153.11902 | 28 ft | 20 kts | 27° |
| 2026-05-07 02:49 | -27.39368 | 153.11976 | 30 ft | 21 kts | 27° |
| 2026-05-07 02:49 | -27.39235 | 153.12052 | 25 ft | 22 kts | 27° |
| 2026-05-07 02:49 | -27.39097 | 153.12131 | 25 ft | 20 kts | 27° |
| 2026-05-07 02:49 | -27.38981 | 153.12198 | 29 ft | 11 kts | 27° |
| 2026-05-07 02:50 | -27.38905 | 153.12242 | 27 ft | 13 kts | 27° |
| 2026-05-07 02:50 | -27.38818 | 153.12291 | 30 ft | 15 kts | 27° |
| 2026-05-07 02:50 | -27.38724 | 153.12346 | 26 ft | 16 kts | 27° |
| 2026-05-07 02:50 | -27.38624 | 153.12401 | 30 ft | 16 kts | 27° |
| 2026-05-07 02:51 | -27.38518 | 153.12463 | 24 ft | 18 kts | 26° |
| 2026-05-07 02:51 | -27.38405 | 153.12527 | 26 ft | 19 kts | 27° |
| 2026-05-07 02:51 | -27.38286 | 153.12596 | 27 ft | 20 kts | 27° |
| 2026-05-07 02:51 | -27.38159 | 153.12668 | 29 ft | 21 kts | 27° |
| 2026-05-07 02:52 | -27.38058 | 153.12726 | 28 ft | 2 kts | 27° |
| 2026-05-07 02:52 | -27.38037 | 153.12737 | 27 ft | 5 kts | 27° |
| 2026-05-07 02:52 | -27.37985 | 153.12765 | 27 ft | 11 kts | 17° |
| 2026-05-07 02:52 | -27.37934 | 153.12727 | 28 ft | 10 kts | 299° |
| 2026-05-07 02:53 | -27.37899 | 153.12652 | 28 ft | 12 kts | 297° |
| 2026-05-07 02:53 | -27.37859 | 153.12565 | 29 ft | 13 kts | 297° |
| 2026-05-07 02:53 | -27.37814 | 153.12466 | 29 ft | 15 kts | 297° |
| 2026-05-07 02:53 | -27.37764 | 153.12357 | 26 ft | 16 kts | 297° |
| 2026-05-07 02:54 | -27.37714 | 153.12249 | 29 ft | 18 kts | 297° |
| 2026-05-07 02:54 | -27.37679 | 153.12173 | 26 ft | 18 kts | 297° |
| 2026-05-07 02:54 | -27.37620 | 153.12042 | 26 ft | 19 kts | 296° |
| 2026-05-07 02:54 | -27.37557 | 153.11904 | 28 ft | 20 kts | 297° |
| 2026-05-07 02:55 | -27.37490 | 153.11760 | 29 ft | 21 kts | 297° |
| 2026-05-07 02:55 | -27.37427 | 153.11620 | 27 ft | 16 kts | 296° |
| 2026-05-07 02:55 | -27.37384 | 153.11556 | 27 ft | 9 kts | 339° |
| 2026-05-07 02:55 | -27.37322 | 153.11572 | 26 ft | 10 kts | 27° |
| 2026-05-07 02:56 | -27.37253 | 153.11612 | 26 ft | 12 kts | 27° |
| 2026-05-07 02:56 | -27.37173 | 153.11655 | 27 ft | 14 kts | 24° |
| 2026-05-07 02:56 | -27.37085 | 153.11705 | 28 ft | 15 kts | 27° |
| 2026-05-07 02:56 | -27.36977 | 153.11768 | 26 ft | 19 kts | 27° |
| 2026-05-07 02:57 | -27.36855 | 153.11838 | 29 ft | 20 kts | 26° |
| 2026-05-07 02:57 | -27.36729 | 153.11910 | 28 ft | 21 kts | 27° |
| 2026-05-07 02:57 | -27.36596 | 153.11985 | 27 ft | 22 kts | 26° |
| 2026-05-07 02:57 | -27.36458 | 153.12063 | 29 ft | 23 kts | 27° |
| 2026-05-07 02:58 | -27.36316 | 153.12145 | 29 ft | 23 kts | 27° |
| 2026-05-07 02:58 | -27.36170 | 153.12229 | 25 ft | 24 kts | 27° |
| 2026-05-07 02:58 | -27.36019 | 153.12315 | 29 ft | 22 kts | 27° |
| 2026-05-07 02:58 | -27.35913 | 153.12375 | 26 ft | 12 kts | 25° |
| 2026-05-07 02:59 | -27.35836 | 153.12359 | 26 ft | 12 kts | 327° |
| 2026-05-07 02:59 | -27.35761 | 153.12303 | 27 ft | 14 kts | 326° |
| 2026-05-07 02:59 | -27.35689 | 153.12235 | 31 ft | 13 kts | 301° |
| 2026-05-07 02:59 | -27.35706 | 153.12170 | 32 ft | 9 kts | 216° |
| 2026-05-07 03:00 | -27.35763 | 153.12135 | 27 ft | 10 kts | 207° |
| 2026-05-07 03:00 | -27.35870 | 153.12074 | 27 ft | 40 kts | 207° |
| 2026-05-07 03:00 | -27.36317 | 153.11818 | 29 ft | 102 kts | 207° |
| 2026-05-07 03:00 | -27.37112 | 153.11362 | 31 ft | 153 kts | 207° |
| 2026-05-07 03:01 | -27.38094 | 153.10789 | 521 ft | 154 kts | 208° |
| 2026-05-07 03:01 | -27.39045 | 153.10213 | 1057 ft | 157 kts | 207° |
| 2026-05-07 03:01 | -27.40091 | 153.09606 | 1313 ft | 179 kts | 206° |
| 2026-05-07 03:01 | -27.41271 | 153.08951 | 1567 ft | 200 kts | 206° |
| 2026-05-07 03:02 | -27.42579 | 153.08221 | 1808 ft | 223 kts | 206° |
| 2026-05-07 03:02 | -27.44017 | 153.07409 | 2279 ft | 235 kts | 206° |
| 2026-05-07 03:02 | -27.45488 | 153.06559 | 2916 ft | 240 kts | 209° |
| 2026-05-07 03:02 | -27.46756 | 153.05335 | 3548 ft | 244 kts | 236° |
| 2026-05-07 03:03 | -27.47313 | 153.03548 | 4230 ft | 245 kts | 262° |
| 2026-05-07 03:03 | -27.47484 | 153.01627 | 4894 ft | 248 kts | 265° |
| 2026-05-07 03:03 | -27.47618 | 152.99676 | 5567 ft | 250 kts | 265° |
| 2026-05-07 03:03 | -27.47758 | 152.97714 | 6235 ft | 253 kts | 265° |
| 2026-05-07 03:04 | -27.47687 | 152.95733 | 6866 ft | 256 kts | 282° |
| 2026-05-07 03:04 | -27.46945 | 152.93914 | 7455 ft | 261 kts | 308° |
| 2026-05-07 03:04 | -27.45546 | 152.92567 | 7990 ft | 268 kts | 328° |
| 2026-05-07 03:04 | -27.43949 | 152.91518 | 8596 ft | 272 kts | 330° |
| 2026-05-07 03:05 | -27.42296 | 152.90461 | 9240 ft | 275 kts | 330° |
| 2026-05-07 03:05 | -27.40621 | 152.89376 | 9905 ft | 278 kts | 330° |
| 2026-05-07 03:05 | -27.38917 | 152.88263 | 10377 ft | 290 kts | 329° |
| 2026-05-07 03:05 | -27.37122 | 152.87083 | 10649 ft | 307 kts | 329° |
| 2026-05-07 03:06 | -27.35226 | 152.85832 | 10957 ft | 322 kts | 329° |
| 2026-05-07 03:06 | -27.33926 | 152.84973 | 11152 ft | 332 kts | 329° |
| 2026-05-07 03:06 | -27.31189 | 152.83165 | 11577 ft | 349 kts | 329° |
| 2026-05-07 03:06 | -27.29794 | 152.82245 | 11906 ft | 353 kts | 329° |
| 2026-05-07 03:07 | -27.27665 | 152.80840 | 12429 ft | 357 kts | 329° |
| 2026-05-07 03:07 | -27.24803 | 152.78953 | 13132 ft | 362 kts | 329° |
| 2026-05-07 03:07 | -27.23325 | 152.77988 | 13486 ft | 364 kts | 330° |
| 2026-05-07 03:07 | -27.21100 | 152.76612 | 14004 ft | 367 kts | 330° |
| 2026-05-07 03:08 | -27.19042 | 152.74908 | 14496 ft | 370 kts | 315° |
| 2026-05-07 03:08 | -27.17017 | 152.71827 | 15165 ft | 373 kts | 301° |
| 2026-05-07 03:08 | -27.16137 | 152.70117 | 15484 ft | 376 kts | 298° |
| 2026-05-07 03:08 | -27.14925 | 152.67513 | 15989 ft | 378 kts | 296° |
| 2026-05-07 03:09 | -27.13763 | 152.64890 | 16486 ft | 380 kts | 296° |
| 2026-05-07 03:09 | -27.12584 | 152.62221 | 16979 ft | 383 kts | 296° |
| 2026-05-07 03:09 | -27.11378 | 152.59535 | 17462 ft | 386 kts | 297° |
| 2026-05-07 03:09 | -27.10151 | 152.56856 | 17936 ft | 388 kts | 297° |
| 2026-05-07 03:10 | -27.08897 | 152.54160 | 18385 ft | 391 kts | 297° |
| 2026-05-07 03:10 | -27.07622 | 152.51443 | 18782 ft | 395 kts | 297° |
| 2026-05-07 03:10 | -27.06198 | 152.48800 | 19210 ft | 397 kts | 305° |
| 2026-05-07 03:10 | -27.04406 | 152.46432 | 19675 ft | 399 kts | 314° |
| 2026-05-07 03:11 | -27.02401 | 152.44268 | 20108 ft | 401 kts | 317° |
| 2026-05-07 03:11 | -27.00307 | 152.42190 | 20539 ft | 404 kts | 319° |
| 2026-05-07 03:11 | -26.98156 | 152.40147 | 20955 ft | 406 kts | 320° |
| 2026-05-07 03:11 | -26.95976 | 152.38113 | 21369 ft | 409 kts | 320° |
| 2026-05-07 03:12 | -26.93782 | 152.36067 | 21770 ft | 411 kts | 320° |
| 2026-05-07 03:12 | -26.91580 | 152.34005 | 22173 ft | 413 kts | 320° |
| 2026-05-07 03:12 | -26.89370 | 152.31925 | 22563 ft | 416 kts | 320° |
| 2026-05-07 03:12 | -26.87150 | 152.29828 | 22950 ft | 418 kts | 320° |
| 2026-05-07 03:13 | -26.84922 | 152.27716 | 23335 ft | 421 kts | 320° |
| 2026-05-07 03:13 | -26.82714 | 152.25621 | 23693 ft | 423 kts | 320° |
| 2026-05-07 03:13 | -26.80456 | 152.23477 | 24042 ft | 426 kts | 320° |
| 2026-05-07 03:13 | -26.78187 | 152.21324 | 24404 ft | 428 kts | 320° |
| 2026-05-07 03:14 | -26.75905 | 152.19160 | 24750 ft | 431 kts | 320° |
| 2026-05-07 03:14 | -26.73605 | 152.16981 | 25093 ft | 433 kts | 320° |
| 2026-05-07 03:14 | -26.68985 | 152.12607 | 25758 ft | 438 kts | 320° |
| 2026-05-07 03:15 | -26.66654 | 152.10403 | 26089 ft | 440 kts | 320° |
| 2026-05-07 03:15 | -26.64341 | 152.08217 | 26397 ft | 442 kts | 320° |
| 2026-05-07 03:15 | -26.61979 | 152.05986 | 26728 ft | 445 kts | 320° |
| 2026-05-07 03:15 | -26.59611 | 152.03751 | 27064 ft | 447 kts | 320° |
| 2026-05-07 03:16 | -26.57232 | 152.01506 | 27403 ft | 449 kts | 320° |
| 2026-05-07 03:16 | -26.54839 | 151.99249 | 27719 ft | 451 kts | 320° |
| 2026-05-07 03:16 | -26.52432 | 151.96981 | 28049 ft | 453 kts | 320° |
| 2026-05-07 03:16 | -26.51336 | 151.95948 | 28195 ft | 454 kts | 320° |
| 2026-05-07 03:17 | -26.50745 | 151.95393 | 28289 ft | 454 kts | 320° |
| 2026-05-07 03:17 | -26.48385 | 151.93026 | 28586 ft | 457 kts | 314° |
| 2026-05-07 03:17 | -26.46264 | 151.90428 | 28880 ft | 459 kts | 311° |
| 2026-05-07 03:17 | -26.44177 | 151.87719 | 29166 ft | 461 kts | 310° |
| 2026-05-07 03:18 | -26.42110 | 151.84963 | 29456 ft | 463 kts | 309° |
| 2026-05-07 03:18 | -26.40053 | 151.82187 | 29754 ft | 465 kts | 309° |
| 2026-05-07 03:18 | -26.37993 | 151.79401 | 30035 ft | 467 kts | 309° |
| 2026-05-07 03:18 | -26.35914 | 151.76593 | 30300 ft | 469 kts | 309° |
| 2026-05-07 03:19 | -26.33827 | 151.73783 | 30564 ft | 471 kts | 309° |
| 2026-05-07 03:19 | -26.31728 | 151.70966 | 30836 ft | 473 kts | 309° |
| 2026-05-07 03:19 | -26.29647 | 151.68178 | 31098 ft | 474 kts | 310° |
| 2026-05-07 03:19 | -26.27527 | 151.65343 | 31353 ft | 476 kts | 310° |
| 2026-05-07 03:20 | -26.25403 | 151.62505 | 31607 ft | 478 kts | 310° |
| 2026-05-07 03:20 | -26.23263 | 151.59648 | 31836 ft | 479 kts | 310° |
| 2026-05-07 03:20 | -26.21128 | 151.56800 | 32161 ft | 479 kts | 310° |
| 2026-05-07 03:20 | -26.18995 | 151.53956 | 32500 ft | 477 kts | 310° |
| 2026-05-07 03:21 | -26.16867 | 151.51119 | 32811 ft | 477 kts | 310° |
| 2026-05-07 03:21 | -26.14739 | 151.48285 | 33113 ft | 476 kts | 310° |
| 2026-05-07 03:21 | -26.12615 | 151.45457 | 33422 ft | 475 kts | 310° |
| 2026-05-07 03:21 | -26.10487 | 151.42625 | 33724 ft | 475 kts | 310° |
| 2026-05-07 03:22 | -26.08365 | 151.39803 | 34014 ft | 474 kts | 310° |
| 2026-05-07 03:22 | -26.06249 | 151.36992 | 34293 ft | 474 kts | 310° |
| 2026-05-07 03:22 | -26.04163 | 151.34221 | 34552 ft | 473 kts | 310° |
| 2026-05-07 03:22 | -26.02049 | 151.31416 | 34792 ft | 473 kts | 310° |
| 2026-05-07 03:23 | -25.99936 | 151.28613 | 35051 ft | 473 kts | 310° |
| 2026-05-07 03:23 | -25.97823 | 151.25812 | 35307 ft | 472 kts | 310° |
| 2026-05-07 03:23 | -25.95715 | 151.23019 | 35557 ft | 471 kts | 310° |
| 2026-05-07 03:23 | -25.93611 | 151.20234 | 35794 ft | 470 kts | 310° |
| 2026-05-07 03:24 | -25.91507 | 151.17449 | 36011 ft | 470 kts | 310° |
| 2026-05-07 03:24 | -25.89398 | 151.14661 | 36205 ft | 470 kts | 310° |
| 2026-05-07 03:24 | -25.87296 | 151.11883 | 36391 ft | 470 kts | 310° |
| 2026-05-07 03:24 | -25.85190 | 151.09102 | 36575 ft | 470 kts | 310° |
| 2026-05-07 03:25 | -25.83085 | 151.06323 | 36750 ft | 470 kts | 310° |
| 2026-05-07 03:25 | -25.80979 | 151.03545 | 36915 ft | 470 kts | 310° |
| 2026-05-07 03:25 | -25.78872 | 151.00767 | 37110 ft | 469 kts | 310° |
| 2026-05-07 03:25 | -25.76768 | 150.97996 | 37253 ft | 470 kts | 310° |
| 2026-05-07 03:26 | -25.74663 | 150.95224 | 37399 ft | 470 kts | 310° |
| 2026-05-07 03:26 | -25.72585 | 150.92489 | 37537 ft | 470 kts | 310° |
| 2026-05-07 03:26 | -25.70479 | 150.89719 | 37689 ft | 470 kts | 310° |
| 2026-05-07 03:26 | -25.68346 | 150.86916 | 37830 ft | 470 kts | 310° |
| 2026-05-07 03:27 | -25.66264 | 150.84181 | 37938 ft | 470 kts | 310° |
| 2026-05-07 03:27 | -25.62025 | 150.78618 | 38002 ft | 474 kts | 310° |
| 2026-05-07 03:28 | -25.57761 | 150.73028 | 38000 ft | 474 kts | 310° |
| 2026-05-07 03:28 | -25.53494 | 150.67443 | 38000 ft | 474 kts | 310° |
| 2026-05-07 03:29 | -25.49224 | 150.61859 | 38000 ft | 474 kts | 310° |
| 2026-05-07 03:29 | -25.44959 | 150.56288 | 38000 ft | 475 kts | 310° |
| 2026-05-07 03:30 | -25.40704 | 150.50739 | 38000 ft | 475 kts | 310° |
| 2026-05-07 03:30 | -25.36425 | 150.45163 | 38000 ft | 475 kts | 310° |
| 2026-05-07 03:31 | -25.32139 | 150.39585 | 38000 ft | 475 kts | 310° |
| 2026-05-07 03:31 | -25.27883 | 150.34058 | 38000 ft | 475 kts | 310° |
| 2026-05-07 03:32 | -25.23600 | 150.28506 | 38000 ft | 475 kts | 310° |
| 2026-05-07 03:32 | -25.19315 | 150.22958 | 38000 ft | 475 kts | 310° |
| 2026-05-07 03:33 | -25.15027 | 150.17411 | 38000 ft | 473 kts | 310° |
| 2026-05-07 03:33 | -25.10750 | 150.11888 | 38000 ft | 473 kts | 310° |
| 2026-05-07 03:34 | -25.06494 | 150.06397 | 38000 ft | 473 kts | 310° |
| 2026-05-07 03:34 | -25.02206 | 150.00872 | 38000 ft | 473 kts | 310° |
| 2026-05-07 03:35 | -24.97921 | 149.95356 | 38000 ft | 473 kts | 310° |
| 2026-05-07 03:35 | -24.93633 | 149.89844 | 38000 ft | 473 kts | 310° |
| 2026-05-07 03:36 | -24.89345 | 149.84337 | 38000 ft | 473 kts | 310° |
| 2026-05-07 03:36 | -24.85055 | 149.78834 | 38000 ft | 473 kts | 310° |
| 2026-05-07 03:37 | -24.80790 | 149.73370 | 38000 ft | 473 kts | 310° |
| 2026-05-07 03:37 | -24.76499 | 149.67879 | 38000 ft | 473 kts | 310° |
| 2026-05-07 03:38 | -24.72204 | 149.62390 | 38000 ft | 473 kts | 310° |
| 2026-05-07 03:38 | -24.67904 | 149.56899 | 38000 ft | 473 kts | 310° |
| 2026-05-07 03:39 | -24.63604 | 149.51416 | 38000 ft | 473 kts | 310° |
| 2026-05-07 03:39 | -24.59301 | 149.45935 | 38000 ft | 473 kts | 310° |
| 2026-05-07 03:40 | -24.54994 | 149.40456 | 38000 ft | 473 kts | 311° |
| 2026-05-07 03:40 | -24.50709 | 149.35010 | 38000 ft | 473 kts | 311° |
| 2026-05-07 03:41 | -24.46405 | 149.29547 | 38000 ft | 473 kts | 311° |
| 2026-05-07 03:41 | -24.42093 | 149.24078 | 38000 ft | 473 kts | 311° |
| 2026-05-07 03:42 | -24.37780 | 149.18617 | 38000 ft | 473 kts | 311° |
| 2026-05-07 03:42 | -24.33485 | 149.13184 | 38000 ft | 474 kts | 311° |
| 2026-05-07 03:43 | -24.29162 | 149.07720 | 38000 ft | 474 kts | 311° |
| 2026-05-07 03:43 | -24.24829 | 149.02251 | 38000 ft | 475 kts | 311° |
| 2026-05-07 03:44 | -24.20488 | 148.96779 | 38000 ft | 475 kts | 311° |
| 2026-05-07 03:44 | -24.16179 | 148.91351 | 38000 ft | 474 kts | 311° |
| 2026-05-07 03:45 | -24.11848 | 148.85904 | 38000 ft | 474 kts | 311° |
| 2026-05-07 03:45 | -24.07512 | 148.80455 | 38000 ft | 474 kts | 311° |
| 2026-05-07 03:46 | -24.03183 | 148.75021 | 38000 ft | 474 kts | 311° |
| 2026-05-07 03:46 | -23.98846 | 148.69584 | 38000 ft | 474 kts | 311° |
| 2026-05-07 03:47 | -23.94509 | 148.64152 | 38000 ft | 474 kts | 311° |
| 2026-05-07 03:47 | -23.90248 | 148.58823 | 38000 ft | 473 kts | 311° |
| 2026-05-07 03:48 | -23.85909 | 148.53401 | 38000 ft | 473 kts | 311° |
| 2026-05-07 03:48 | -23.81595 | 148.48016 | 38000 ft | 473 kts | 311° |
| 2026-05-07 03:49 | -23.77261 | 148.42612 | 38000 ft | 473 kts | 311° |
| 2026-05-07 03:49 | -23.72913 | 148.37197 | 38000 ft | 473 kts | 311° |
| 2026-05-07 03:50 | -23.68570 | 148.31795 | 38000 ft | 473 kts | 311° |
| 2026-05-07 03:50 | -23.64226 | 148.26397 | 38000 ft | 473 kts | 311° |
| 2026-05-07 03:51 | -23.59874 | 148.20994 | 38000 ft | 473 kts | 311° |
| 2026-05-07 03:51 | -23.55554 | 148.15632 | 38001 ft | 473 kts | 311° |
| 2026-05-07 03:52 | -23.51254 | 148.10175 | 38000 ft | 473 kts | 310° |
| 2026-05-07 03:52 | -23.46986 | 148.04715 | 38000 ft | 473 kts | 310° |
| 2026-05-07 03:53 | -23.42708 | 147.99263 | 38000 ft | 473 kts | 310° |
| 2026-05-07 03:53 | -23.39144 | 147.94737 | 38000 ft | 474 kts | 310° |
| 2026-05-07 03:54 | -23.34847 | 147.89291 | 38000 ft | 474 kts | 310° |
| 2026-05-07 03:54 | -23.30551 | 147.83852 | 38000 ft | 474 kts | 310° |
| 2026-05-07 03:55 | -23.26262 | 147.78428 | 38000 ft | 474 kts | 310° |
| 2026-05-07 03:55 | -23.21962 | 147.72994 | 38000 ft | 474 kts | 310° |
| 2026-05-07 03:56 | -23.17657 | 147.67560 | 38000 ft | 474 kts | 310° |
| 2026-05-07 03:56 | -23.13352 | 147.62133 | 38000 ft | 474 kts | 310° |
| 2026-05-07 03:57 | -23.09073 | 147.56743 | 38000 ft | 474 kts | 310° |
| 2026-05-07 03:57 | -23.04759 | 147.51316 | 38000 ft | 474 kts | 311° |
| 2026-05-07 03:58 | -23.00444 | 147.45893 | 38000 ft | 474 kts | 311° |
| 2026-05-07 03:58 | -22.96126 | 147.40471 | 38000 ft | 475 kts | 311° |
| 2026-05-07 03:59 | -22.91821 | 147.35073 | 38000 ft | 475 kts | 311° |
| 2026-05-07 03:59 | -22.87492 | 147.29649 | 38000 ft | 475 kts | 311° |
| 2026-05-07 04:00 | -22.83167 | 147.24237 | 38000 ft | 475 kts | 311° |
| 2026-05-07 04:00 | -22.78838 | 147.18826 | 38000 ft | 474 kts | 311° |
| 2026-05-07 04:01 | -22.74511 | 147.13423 | 38000 ft | 474 kts | 311° |
| 2026-05-07 04:01 | -22.70210 | 147.08056 | 38000 ft | 474 kts | 311° |
| 2026-05-07 04:02 | -22.65876 | 147.02655 | 38000 ft | 474 kts | 311° |
| 2026-05-07 04:02 | -22.61543 | 146.97262 | 38000 ft | 474 kts | 311° |
| 2026-05-07 04:03 | -22.57236 | 146.91906 | 38000 ft | 474 kts | 311° |
| 2026-05-07 04:03 | -22.52892 | 146.86509 | 38000 ft | 474 kts | 311° |
| 2026-05-07 04:04 | -22.48561 | 146.81134 | 38000 ft | 474 kts | 311° |
| 2026-05-07 04:04 | -22.44249 | 146.75789 | 38000 ft | 474 kts | 311° |
| 2026-05-07 04:05 | -22.39915 | 146.70421 | 38000 ft | 474 kts | 311° |
| 2026-05-07 04:05 | -22.35576 | 146.65054 | 38000 ft | 474 kts | 311° |
| 2026-05-07 04:06 | -22.31238 | 146.59692 | 38000 ft | 474 kts | 311° |
| 2026-05-07 04:06 | -22.26894 | 146.54330 | 38000 ft | 474 kts | 311° |
| 2026-05-07 04:07 | -22.22555 | 146.48978 | 38000 ft | 474 kts | 311° |
| 2026-05-07 04:07 | -22.18244 | 146.43666 | 38000 ft | 474 kts | 311° |
| 2026-05-07 04:08 | -22.13895 | 146.38313 | 38000 ft | 474 kts | 311° |
| 2026-05-07 04:08 | -22.09542 | 146.32961 | 38000 ft | 474 kts | 311° |
| 2026-05-07 04:09 | -22.05196 | 146.27623 | 38000 ft | 474 kts | 311° |
| 2026-05-07 04:09 | -22.00868 | 146.22312 | 38000 ft | 474 kts | 311° |
| 2026-05-07 04:10 | -21.96509 | 146.16969 | 38000 ft | 474 kts | 311° |
| 2026-05-07 04:10 | -21.92154 | 146.11635 | 38000 ft | 474 kts | 311° |
| 2026-05-07 04:11 | -21.87789 | 146.06296 | 38000 ft | 474 kts | 311° |
| 2026-05-07 04:11 | -21.83445 | 146.00986 | 38000 ft | 474 kts | 311° |
| 2026-05-07 04:12 | -21.79085 | 145.95662 | 38000 ft | 474 kts | 311° |
| 2026-05-07 04:12 | -21.74719 | 145.90338 | 38000 ft | 474 kts | 311° |
| 2026-05-07 04:13 | -21.70345 | 145.85008 | 38000 ft | 474 kts | 311° |
| 2026-05-07 04:13 | -21.66004 | 145.79723 | 38000 ft | 474 kts | 311° |
| 2026-05-07 04:14 | -21.61627 | 145.74401 | 38000 ft | 474 kts | 311° |
| 2026-05-07 04:14 | -21.57255 | 145.69090 | 38000 ft | 474 kts | 311° |
| 2026-05-07 04:15 | -21.52884 | 145.63785 | 38000 ft | 474 kts | 311° |
| 2026-05-07 04:15 | -21.48505 | 145.58475 | 38000 ft | 475 kts | 311° |
| 2026-05-07 04:16 | -21.44115 | 145.53158 | 38000 ft | 475 kts | 311° |
| 2026-05-07 04:16 | -21.39752 | 145.47878 | 38000 ft | 475 kts | 311° |
| 2026-05-07 04:17 | -21.35367 | 145.42577 | 38000 ft | 475 kts | 311° |
| 2026-05-07 04:17 | -21.30980 | 145.37278 | 38000 ft | 475 kts | 311° |
| 2026-05-07 04:18 | -21.26593 | 145.31986 | 38000 ft | 475 kts | 311° |
| 2026-05-07 04:18 | -21.22201 | 145.26691 | 38000 ft | 475 kts | 311° |
| 2026-05-07 04:19 | -21.17813 | 145.21407 | 38000 ft | 475 kts | 311° |
| 2026-05-07 04:19 | -21.13440 | 145.16147 | 37999 ft | 475 kts | 311° |
| 2026-05-07 04:20 | -21.09047 | 145.10866 | 38000 ft | 475 kts | 311° |
| 2026-05-07 04:20 | -21.04644 | 145.05580 | 38000 ft | 475 kts | 311° |
| 2026-05-07 04:21 | -20.99984 | 145.00646 | 38000 ft | 475 kts | 322° |
| 2026-05-07 04:21 | -20.97239 | 144.98696 | 38001 ft | 474 kts | 331° |
| 2026-05-07 04:21 | -20.91357 | 144.95465 | 38000 ft | 475 kts | 334° |
| 2026-05-07 04:22 | -20.85371 | 144.92430 | 38000 ft | 475 kts | 335° |
| 2026-05-07 04:22 | -20.79393 | 144.89414 | 38000 ft | 475 kts | 334° |
| 2026-05-07 04:23 | -20.73462 | 144.86394 | 38000 ft | 475 kts | 334° |
| 2026-05-07 04:23 | -20.67495 | 144.83341 | 38000 ft | 475 kts | 334° |
| 2026-05-07 04:24 | -20.61522 | 144.80285 | 38000 ft | 476 kts | 334° |
| 2026-05-07 04:24 | -20.55542 | 144.77229 | 38000 ft | 476 kts | 334° |
| 2026-05-07 04:25 | -20.49551 | 144.74170 | 38000 ft | 476 kts | 334° |
| 2026-05-07 04:25 | -20.43610 | 144.71140 | 38000 ft | 476 kts | 334° |
| 2026-05-07 04:26 | -20.37622 | 144.68089 | 38000 ft | 476 kts | 334° |
| 2026-05-07 04:26 | -20.31629 | 144.65038 | 38000 ft | 477 kts | 334° |
| 2026-05-07 04:27 | -20.25630 | 144.61987 | 38000 ft | 477 kts | 334° |
| 2026-05-07 04:27 | -20.19629 | 144.58937 | 38000 ft | 478 kts | 334° |
| 2026-05-07 04:28 | -20.13626 | 144.55888 | 38000 ft | 478 kts | 334° |
| 2026-05-07 04:28 | -20.07660 | 144.52861 | 38000 ft | 478 kts | 334° |
| 2026-05-07 04:29 | -20.01655 | 144.49817 | 38000 ft | 478 kts | 334° |
| 2026-05-07 04:29 | -19.95643 | 144.46772 | 38000 ft | 478 kts | 334° |
| 2026-05-07 04:30 | -19.94013 | 144.45947 | 37999 ft | 479 kts | 334° |
| 2026-05-07 04:30 | -19.90094 | 144.43964 | 38000 ft | 478 kts | 334° |
| 2026-05-07 04:31 | -19.84083 | 144.40924 | 38000 ft | 478 kts | 334° |
| 2026-05-07 04:31 | -19.78078 | 144.37890 | 38000 ft | 478 kts | 334° |
| 2026-05-07 04:32 | -19.72106 | 144.34875 | 38000 ft | 478 kts | 334° |
| 2026-05-07 04:32 | -19.66094 | 144.31843 | 38000 ft | 478 kts | 334° |
| 2026-05-07 04:33 | -19.60079 | 144.28811 | 38000 ft | 478 kts | 334° |
| 2026-05-07 04:33 | -19.54053 | 144.25777 | 38000 ft | 479 kts | 334° |
| 2026-05-07 04:34 | -19.48071 | 144.22767 | 38000 ft | 479 kts | 334° |
| 2026-05-07 04:34 | -19.42018 | 144.19724 | 38000 ft | 478 kts | 334° |
| 2026-05-07 04:35 | -19.36044 | 144.16723 | 38000 ft | 478 kts | 334° |
| 2026-05-07 04:35 | -19.30031 | 144.13705 | 38000 ft | 478 kts | 334° |
| 2026-05-07 04:36 | -19.24024 | 144.10692 | 38000 ft | 477 kts | 334° |
| 2026-05-07 04:36 | -19.18012 | 144.07680 | 38001 ft | 478 kts | 334° |
| 2026-05-07 04:37 | -19.11999 | 144.04669 | 38000 ft | 478 kts | 334° |
| 2026-05-07 04:37 | -19.06025 | 144.01680 | 38000 ft | 477 kts | 334° |
| 2026-05-07 04:38 | -19.00019 | 143.98678 | 38000 ft | 477 kts | 334° |
| 2026-05-07 04:38 | -18.94017 | 143.95680 | 38000 ft | 477 kts | 334° |
| 2026-05-07 04:39 | -18.88015 | 143.92684 | 38000 ft | 477 kts | 335° |
| 2026-05-07 04:39 | -18.82018 | 143.89694 | 38000 ft | 477 kts | 335° |
| 2026-05-07 04:40 | -18.76014 | 143.86702 | 38000 ft | 477 kts | 335° |
| 2026-05-07 04:40 | -18.70009 | 143.83712 | 38000 ft | 477 kts | 335° |
| 2026-05-07 04:41 | -18.64045 | 143.80745 | 38000 ft | 477 kts | 335° |
| 2026-05-07 04:41 | -18.58050 | 143.77765 | 38000 ft | 477 kts | 335° |
| 2026-05-07 04:42 | -18.52038 | 143.74779 | 38000 ft | 477 kts | 335° |
| 2026-05-07 04:42 | -18.46037 | 143.71800 | 38000 ft | 476 kts | 335° |
| 2026-05-07 04:43 | -18.40046 | 143.68829 | 38000 ft | 476 kts | 335° |
| 2026-05-07 04:43 | -18.35078 | 143.66367 | 38000 ft | 475 kts | 335° |
| 2026-05-07 04:44 | -18.29092 | 143.63402 | 38000 ft | 474 kts | 335° |
| 2026-05-07 04:44 | -18.23113 | 143.60443 | 38000 ft | 474 kts | 335° |
| 2026-05-07 04:45 | -18.16168 | 143.57009 | 38000 ft | 474 kts | 335° |
| 2026-05-07 04:45 | -18.11161 | 143.54535 | 38000 ft | 474 kts | 335° |
| 2026-05-07 04:46 | -18.05225 | 143.51604 | 38000 ft | 474 kts | 335° |
| 2026-05-07 04:46 | -17.99256 | 143.48659 | 38000 ft | 474 kts | 335° |
| 2026-05-07 04:47 | -17.93282 | 143.45714 | 38000 ft | 474 kts | 335° |
| 2026-05-07 04:47 | -17.87305 | 143.42770 | 38000 ft | 474 kts | 335° |
| 2026-05-07 04:48 | -17.81324 | 143.39825 | 38000 ft | 474 kts | 335° |
| 2026-05-07 04:48 | -17.75352 | 143.36888 | 37999 ft | 474 kts | 335° |
| 2026-05-07 04:49 | -17.69386 | 143.33955 | 38000 ft | 473 kts | 335° |
| 2026-05-07 04:49 | -17.63458 | 143.31043 | 38000 ft | 473 kts | 335° |
| 2026-05-07 04:50 | -17.57479 | 143.28109 | 38000 ft | 473 kts | 335° |
| 2026-05-07 04:50 | -17.51517 | 143.25185 | 38000 ft | 473 kts | 335° |
| 2026-05-07 04:51 | -17.45548 | 143.22259 | 38000 ft | 473 kts | 335° |
| 2026-05-07 04:51 | -17.39578 | 143.19335 | 38000 ft | 473 kts | 335° |
| 2026-05-07 04:52 | -17.33610 | 143.16415 | 38000 ft | 473 kts | 335° |
| 2026-05-07 04:52 | -17.27647 | 143.13499 | 38000 ft | 473 kts | 335° |
| 2026-05-07 04:53 | -17.21679 | 143.10582 | 38000 ft | 473 kts | 335° |
| 2026-05-07 04:53 | -17.19211 | 143.09377 | 37999 ft | 473 kts | 335° |
| 2026-05-07 04:54 | -17.13238 | 143.06460 | 38000 ft | 473 kts | 335° |
| 2026-05-07 04:54 | -17.07303 | 143.03565 | 38000 ft | 473 kts | 335° |
| 2026-05-07 04:55 | -17.01333 | 143.00655 | 38000 ft | 473 kts | 335° |
| 2026-05-07 04:55 | -16.95383 | 142.97710 | 38000 ft | 473 kts | 334° |
| 2026-05-07 04:56 | -16.89481 | 142.94672 | 38000 ft | 473 kts | 334° |
| 2026-05-07 04:56 | -16.83578 | 142.91630 | 38000 ft | 473 kts | 334° |
| 2026-05-07 04:57 | -16.77667 | 142.88606 | 38000 ft | 473 kts | 334° |
| 2026-05-07 04:57 | -16.71748 | 142.85589 | 38000 ft | 473 kts | 334° |
| 2026-05-07 04:58 | -16.65874 | 142.82600 | 38000 ft | 473 kts | 334° |
| 2026-05-07 04:58 | -16.59962 | 142.79593 | 38000 ft | 472 kts | 334° |
| 2026-05-07 04:59 | -16.54057 | 142.76591 | 38000 ft | 472 kts | 334° |
| 2026-05-07 04:59 | -16.48147 | 142.73588 | 38001 ft | 472 kts | 334° |
| 2026-05-07 05:00 | -16.42236 | 142.70586 | 38000 ft | 472 kts | 334° |
| 2026-05-07 05:00 | -16.36330 | 142.67590 | 38000 ft | 472 kts | 334° |
| 2026-05-07 05:01 | -16.30414 | 142.64590 | 38000 ft | 472 kts | 334° |
| 2026-05-07 05:01 | -16.24533 | 142.61610 | 38000 ft | 472 kts | 334° |
| 2026-05-07 05:02 | -16.18618 | 142.58615 | 38000 ft | 472 kts | 334° |
| 2026-05-07 05:02 | -16.12699 | 142.55619 | 38000 ft | 472 kts | 334° |
| 2026-05-07 05:03 | -16.06791 | 142.52632 | 38000 ft | 472 kts | 334° |
| 2026-05-07 05:03 | -16.00879 | 142.49644 | 38000 ft | 472 kts | 334° |
| 2026-05-07 05:04 | -15.94968 | 142.46659 | 38000 ft | 472 kts | 334° |
| 2026-05-07 05:04 | -15.89053 | 142.43674 | 38000 ft | 472 kts | 334° |
| 2026-05-07 05:05 | -15.83137 | 142.40690 | 38000 ft | 472 kts | 334° |
| 2026-05-07 05:05 | -15.77253 | 142.37724 | 38000 ft | 472 kts | 334° |
| 2026-05-07 05:06 | -15.71339 | 142.34745 | 38000 ft | 472 kts | 334° |
| 2026-05-07 05:06 | -15.65424 | 142.31768 | 38000 ft | 472 kts | 334° |
| 2026-05-07 05:07 | -15.59517 | 142.28796 | 38000 ft | 472 kts | 334° |
| 2026-05-07 05:07 | -15.53602 | 142.25823 | 38000 ft | 472 kts | 334° |
| 2026-05-07 05:08 | -15.47716 | 142.22865 | 38000 ft | 472 kts | 334° |
| 2026-05-07 05:08 | -15.41790 | 142.19890 | 38000 ft | 472 kts | 334° |
| 2026-05-07 05:09 | -15.35870 | 142.16919 | 38000 ft | 472 kts | 334° |
| 2026-05-07 05:09 | -15.29962 | 142.13957 | 38000 ft | 472 kts | 334° |
| 2026-05-07 05:10 | -15.24049 | 142.10994 | 38000 ft | 472 kts | 334° |
| 2026-05-07 05:10 | -15.18167 | 142.08048 | 38000 ft | 472 kts | 334° |
| 2026-05-07 05:11 | -15.12249 | 142.05086 | 38000 ft | 472 kts | 334° |
| 2026-05-07 05:11 | -15.06327 | 142.02123 | 38000 ft | 472 kts | 334° |
| 2026-05-07 05:12 | -15.00407 | 141.99164 | 38000 ft | 472 kts | 334° |
| 2026-05-07 05:12 | -14.94531 | 141.96228 | 38000 ft | 472 kts | 334° |
| 2026-05-07 05:13 | -14.88609 | 141.93272 | 38000 ft | 472 kts | 334° |
| 2026-05-07 05:13 | -14.82690 | 141.90318 | 38000 ft | 472 kts | 334° |
| 2026-05-07 05:14 | -14.76771 | 141.87367 | 38000 ft | 472 kts | 334° |
| 2026-05-07 05:14 | -14.70858 | 141.84420 | 38000 ft | 472 kts | 334° |
| 2026-05-07 05:15 | -14.64940 | 141.81473 | 38000 ft | 472 kts | 334° |
| 2026-05-07 05:15 | -14.59058 | 141.78545 | 38000 ft | 472 kts | 334° |
| 2026-05-07 05:16 | -14.53134 | 141.75598 | 38000 ft | 472 kts | 334° |
| 2026-05-07 05:16 | -14.47211 | 141.72653 | 38001 ft | 472 kts | 334° |
| 2026-05-07 05:17 | -14.41271 | 141.69702 | 38000 ft | 472 kts | 334° |
| 2026-05-07 05:17 | -14.35364 | 141.66768 | 38000 ft | 472 kts | 334° |
| 2026-05-07 05:18 | -14.29441 | 141.63829 | 38000 ft | 472 kts | 334° |
| 2026-05-07 05:18 | -14.23557 | 141.60910 | 38000 ft | 472 kts | 334° |
| 2026-05-07 05:19 | -14.17621 | 141.57968 | 38000 ft | 472 kts | 334° |
| 2026-05-07 05:19 | -14.11720 | 141.55044 | 38000 ft | 472 kts | 334° |
| 2026-05-07 05:20 | -14.05780 | 141.52104 | 38000 ft | 472 kts | 334° |
| 2026-05-07 05:20 | -13.99890 | 141.49189 | 38000 ft | 472 kts | 334° |
| 2026-05-07 05:21 | -13.91005 | 141.44795 | 38000 ft | 472 kts | 334° |
| 2026-05-07 05:22 | -13.85085 | 141.41870 | 38000 ft | 472 kts | 334° |
| 2026-05-07 05:22 | -13.79203 | 141.38965 | 38000 ft | 472 kts | 334° |
| 2026-05-07 05:23 | -13.73281 | 141.36042 | 38000 ft | 472 kts | 334° |
| 2026-05-07 05:23 | -13.67354 | 141.33118 | 38000 ft | 472 kts | 334° |
| 2026-05-07 05:24 | -13.61427 | 141.30196 | 38000 ft | 472 kts | 334° |
| 2026-05-07 05:24 | -13.55504 | 141.27278 | 38001 ft | 472 kts | 334° |
| 2026-05-07 05:25 | -13.49579 | 141.24360 | 38000 ft | 472 kts | 334° |
| 2026-05-07 05:25 | -13.43657 | 141.21445 | 38000 ft | 472 kts | 334° |
| 2026-05-07 05:26 | -13.37728 | 141.18528 | 38000 ft | 472 kts | 334° |
| 2026-05-07 05:26 | -13.31841 | 141.15634 | 38000 ft | 472 kts | 334° |
| 2026-05-07 05:27 | -13.25918 | 141.12724 | 38000 ft | 472 kts | 334° |
| 2026-05-07 05:27 | -13.19987 | 141.09811 | 38000 ft | 472 kts | 334° |
| 2026-05-07 05:28 | -13.14060 | 141.06901 | 38000 ft | 472 kts | 334° |
| 2026-05-07 05:28 | -13.08133 | 141.03994 | 38000 ft | 472 kts | 334° |
| 2026-05-07 05:29 | -13.02243 | 141.01102 | 37999 ft | 472 kts | 334° |
| 2026-05-07 05:29 | -12.96650 | 140.97588 | 38000 ft | 472 kts | 326° |
| 2026-05-07 05:30 | -12.91259 | 140.93752 | 38000 ft | 472 kts | 324° |
| 2026-05-07 05:30 | -12.85895 | 140.89862 | 38000 ft | 472 kts | 324° |
| 2026-05-07 05:31 | -12.80527 | 140.85975 | 38000 ft | 472 kts | 324° |
| 2026-05-07 05:31 | -12.76059 | 140.82753 | 38000 ft | 472 kts | 325° |
| 2026-05-07 05:32 | -12.70686 | 140.78887 | 38000 ft | 472 kts | 325° |
| 2026-05-07 05:32 | -12.64431 | 140.74391 | 38001 ft | 472 kts | 325° |
| 2026-05-07 05:33 | -12.59933 | 140.71158 | 38000 ft | 472 kts | 325° |
| 2026-05-07 05:33 | -12.54594 | 140.67323 | 38000 ft | 472 kts | 325° |
| 2026-05-07 05:34 | -12.49211 | 140.63457 | 38000 ft | 472 kts | 325° |
| 2026-05-07 05:34 | -12.43838 | 140.59602 | 38000 ft | 472 kts | 325° |
| 2026-05-07 05:35 | -12.38459 | 140.55743 | 38000 ft | 472 kts | 325° |
| 2026-05-07 05:35 | -12.33077 | 140.51885 | 38000 ft | 472 kts | 325° |
| 2026-05-07 05:36 | -12.27692 | 140.48027 | 38000 ft | 472 kts | 325° |
| 2026-05-07 05:36 | -12.22346 | 140.44198 | 38000 ft | 472 kts | 325° |
| 2026-05-07 05:37 | -12.16965 | 140.40346 | 38000 ft | 472 kts | 325° |
| 2026-05-07 05:37 | -12.11579 | 140.36492 | 38000 ft | 472 kts | 325° |
| 2026-05-07 05:38 | -12.06201 | 140.32647 | 38000 ft | 472 kts | 325° |
| 2026-05-07 05:38 | -12.00827 | 140.28806 | 38000 ft | 472 kts | 325° |
| 2026-05-07 05:39 | -11.95434 | 140.24953 | 38000 ft | 472 kts | 325° |
| 2026-05-07 05:39 | -11.90094 | 140.21140 | 38000 ft | 472 kts | 325° |
| 2026-05-07 05:40 | -11.84710 | 140.17298 | 38000 ft | 472 kts | 325° |
| 2026-05-07 05:40 | -11.79326 | 140.13457 | 38000 ft | 472 kts | 325° |
| 2026-05-07 05:41 | -11.73945 | 140.09620 | 38000 ft | 472 kts | 325° |
| 2026-05-07 05:41 | -11.68557 | 140.05780 | 38000 ft | 472 kts | 325° |
| 2026-05-07 05:42 | -11.63173 | 140.01946 | 38000 ft | 472 kts | 325° |
| 2026-05-07 05:42 | -11.57785 | 139.98110 | 38000 ft | 472 kts | 325° |
| 2026-05-07 05:43 | -11.52433 | 139.94301 | 38000 ft | 472 kts | 325° |
| 2026-05-07 05:43 | -11.47047 | 139.90470 | 38000 ft | 472 kts | 325° |
| 2026-05-07 05:44 | -11.41651 | 139.86634 | 38000 ft | 472 kts | 325° |
| 2026-05-07 05:44 | -11.36269 | 139.82810 | 38000 ft | 472 kts | 325° |
| 2026-05-07 05:45 | -11.30883 | 139.78984 | 38001 ft | 472 kts | 325° |
| 2026-05-07 05:45 | -11.25514 | 139.75172 | 38000 ft | 472 kts | 325° |
| 2026-05-07 05:46 | -11.20117 | 139.71342 | 38000 ft | 472 kts | 325° |
| 2026-05-07 05:46 | -11.14729 | 139.67521 | 38000 ft | 472 kts | 325° |
| 2026-05-07 05:47 | -11.09336 | 139.63698 | 38000 ft | 472 kts | 325° |
| 2026-05-07 05:47 | -11.03985 | 139.59906 | 38000 ft | 472 kts | 325° |
| 2026-05-07 05:48 | -10.98595 | 139.56088 | 38000 ft | 472 kts | 325° |
| 2026-05-07 05:48 | -10.93206 | 139.52273 | 38000 ft | 472 kts | 325° |
| 2026-05-07 05:49 | -10.87809 | 139.48454 | 38000 ft | 472 kts | 325° |
| 2026-05-07 05:49 | -10.82413 | 139.44637 | 38000 ft | 472 kts | 325° |
| 2026-05-07 05:50 | -10.77022 | 139.40825 | 38000 ft | 472 kts | 325° |
| 2026-05-07 05:50 | -10.71631 | 139.37015 | 38000 ft | 472 kts | 325° |
| 2026-05-07 05:51 | -10.66261 | 139.33222 | 38000 ft | 472 kts | 325° |
| 2026-05-07 05:51 | -10.60861 | 139.29409 | 38000 ft | 472 kts | 325° |
| 2026-05-07 05:52 | -10.55467 | 139.25602 | 38000 ft | 472 kts | 325° |
| 2026-05-07 05:52 | -10.50070 | 139.21794 | 38000 ft | 472 kts | 325° |
| 2026-05-07 05:53 | -10.44671 | 139.17987 | 38000 ft | 472 kts | 325° |
| 2026-05-07 05:53 | -10.39314 | 139.14211 | 38000 ft | 472 kts | 325° |
| 2026-05-07 05:54 | -10.33911 | 139.10404 | 38000 ft | 472 kts | 325° |
| 2026-05-07 05:54 | -10.28513 | 139.06603 | 38000 ft | 472 kts | 325° |
| 2026-05-07 05:55 | -10.23113 | 139.02801 | 38000 ft | 472 kts | 325° |
| 2026-05-07 05:55 | -10.17719 | 138.99005 | 38000 ft | 472 kts | 325° |
| 2026-05-07 05:56 | -10.12355 | 138.95233 | 38000 ft | 472 kts | 325° |
| 2026-05-07 05:56 | -10.06956 | 138.91437 | 38000 ft | 472 kts | 325° |
| 2026-05-07 05:57 | -10.01676 | 138.87726 | 38000 ft | 472 kts | 325° |
| 2026-05-07 05:57 | -9.96279 | 138.83935 | 38000 ft | 472 kts | 325° |
| 2026-05-07 05:58 | -9.90872 | 138.80138 | 38000 ft | 472 kts | 325° |
| 2026-05-07 05:58 | -9.85471 | 138.76346 | 38000 ft | 472 kts | 325° |
| 2026-05-07 05:59 | -9.80087 | 138.72569 | 38000 ft | 472 kts | 325° |
| 2026-05-07 05:59 | -9.74690 | 138.68784 | 38000 ft | 472 kts | 325° |
| 2026-05-07 06:00 | -9.69291 | 138.64999 | 38000 ft | 472 kts | 325° |
| 2026-05-07 06:00 | -9.63904 | 138.61224 | 36321 ft | 472 kts | 324° |
| 2026-05-07 06:00 | -9.61207 | 138.59335 | 36561 ft | 471 kts | 324° |
| 2026-05-07 06:01 | -9.58510 | 138.57445 | 36806 ft | 471 kts | 324° |
| 2026-05-07 06:01 | -9.55818 | 138.55560 | 37066 ft | 470 kts | 324° |
| 2026-05-07 06:01 | -9.53164 | 138.53701 | 37306 ft | 469 kts | 324° |
| 2026-05-07 06:01 | -9.50482 | 138.51824 | 37547 ft | 468 kts | 324° |
| 2026-05-07 06:02 | -9.47811 | 138.49954 | 37799 ft | 467 kts | 324° |
| 2026-05-07 06:02 | -9.42417 | 138.46180 | 37847 ft | 475 kts | 324° |
| 2026-05-07 06:03 | -9.36958 | 138.42361 | 37845 ft | 477 kts | 324° |
| 2026-05-07 06:03 | -9.31496 | 138.38542 | 37844 ft | 477 kts | 325° |
| 2026-05-07 06:04 | -9.26028 | 138.34721 | 37842 ft | 477 kts | 325° |
| 2026-05-07 06:04 | -9.20565 | 138.30904 | 37841 ft | 477 kts | 325° |
| 2026-05-07 06:05 | -9.15095 | 138.27084 | 37834 ft | 477 kts | 325° |
| 2026-05-07 06:05 | -9.09668 | 138.23296 | 37835 ft | 477 kts | 325° |
| 2026-05-07 06:06 | -9.04201 | 138.19481 | 37842 ft | 477 kts | 324° |
| 2026-05-07 06:06 | -8.98733 | 138.15666 | 37838 ft | 476 kts | 325° |
| 2026-05-07 06:07 | -8.93277 | 138.11862 | 37840 ft | 476 kts | 325° |
| 2026-05-07 06:07 | -8.87846 | 138.08077 | 37835 ft | 476 kts | 325° |
| 2026-05-07 06:08 | -8.82433 | 138.04215 | 37834 ft | 476 kts | 323° |
| 2026-05-07 06:08 | -8.77187 | 138.00106 | 37833 ft | 476 kts | 321° |
| 2026-05-07 06:09 | -8.71998 | 137.95996 | 37835 ft | 476 kts | 322° |
| 2026-05-07 06:09 | -8.66748 | 137.91895 | 37832 ft | 477 kts | 322° |
| 2026-05-07 06:10 | -8.61467 | 137.87807 | 37829 ft | 477 kts | 322° |
| 2026-05-07 06:10 | -8.56186 | 137.83727 | 37830 ft | 477 kts | 322° |
| 2026-05-07 06:11 | -8.50918 | 137.79658 | 37828 ft | 477 kts | 322° |
| 2026-05-07 06:11 | -8.45643 | 137.75582 | 37830 ft | 477 kts | 322° |
| 2026-05-07 06:12 | -8.40398 | 137.71531 | 37820 ft | 477 kts | 323° |
| 2026-05-07 06:12 | -8.35113 | 137.67450 | 37824 ft | 478 kts | 323° |
| 2026-05-07 06:13 | -8.29823 | 137.63367 | 37826 ft | 478 kts | 323° |
| 2026-05-07 06:13 | -8.24528 | 137.59281 | 37827 ft | 479 kts | 323° |
| 2026-05-07 06:14 | -8.19235 | 137.55199 | 37826 ft | 479 kts | 323° |
| 2026-05-07 06:14 | -8.13939 | 137.51115 | 37823 ft | 479 kts | 323° |
| 2026-05-07 06:15 | -8.08673 | 137.47056 | 37822 ft | 479 kts | 323° |
| 2026-05-07 06:15 | -8.03373 | 137.42971 | 37820 ft | 479 kts | 323° |
| 2026-05-07 06:16 | -7.98070 | 137.38886 | 37819 ft | 479 kts | 323° |
| 2026-05-07 06:16 | -7.92770 | 137.34805 | 37821 ft | 479 kts | 323° |
| 2026-05-07 06:17 | -7.87472 | 137.30727 | 37820 ft | 479 kts | 323° |
| 2026-05-07 06:17 | -7.82193 | 137.26665 | 37825 ft | 479 kts | 323° |
| 2026-05-07 06:18 | -7.76893 | 137.22588 | 37821 ft | 480 kts | 323° |
| 2026-05-07 06:18 | -7.71575 | 137.18498 | 37825 ft | 481 kts | 323° |
| 2026-05-07 06:19 | -7.66258 | 137.14410 | 37820 ft | 481 kts | 323° |
| 2026-05-07 06:19 | -7.60936 | 137.10320 | 37825 ft | 481 kts | 323° |
| 2026-05-07 06:20 | -7.55609 | 137.06227 | 37817 ft | 481 kts | 323° |
| 2026-05-07 06:20 | -7.50317 | 137.02163 | 37818 ft | 481 kts | 323° |
| 2026-05-07 06:21 | -7.44992 | 136.98074 | 37825 ft | 481 kts | 323° |
| 2026-05-07 06:21 | -7.39664 | 136.93984 | 37816 ft | 482 kts | 323° |
| 2026-05-07 06:22 | -7.34325 | 136.89888 | 37820 ft | 482 kts | 323° |
| 2026-05-07 06:22 | -7.27223 | 136.84440 | 37816 ft | 482 kts | 323° |
| 2026-05-07 06:23 | -7.21886 | 136.80348 | 37817 ft | 482 kts | 323° |
| 2026-05-07 06:23 | -7.15680 | 136.75590 | 37815 ft | 482 kts | 323° |
| 2026-05-07 06:24 | -7.11205 | 136.72162 | 37819 ft | 482 kts | 323° |
| 2026-05-07 06:24 | -7.05871 | 136.68076 | 37819 ft | 482 kts | 323° |
| 2026-05-07 06:25 | -7.00559 | 136.64007 | 37821 ft | 482 kts | 323° |
| 2026-05-07 06:25 | -6.95220 | 136.59920 | 37819 ft | 482 kts | 323° |
| 2026-05-07 06:26 | -6.89880 | 136.55832 | 37815 ft | 482 kts | 323° |
| 2026-05-07 06:26 | -6.84539 | 136.51744 | 37816 ft | 483 kts | 323° |
| 2026-05-07 06:27 | -6.79188 | 136.47651 | 37815 ft | 483 kts | 323° |
| 2026-05-07 06:27 | -6.73846 | 136.43566 | 37815 ft | 482 kts | 323° |
| 2026-05-07 06:28 | -6.68497 | 136.39478 | 37816 ft | 483 kts | 323° |
| 2026-05-07 06:28 | -6.63185 | 136.35417 | 37815 ft | 482 kts | 323° |
| 2026-05-07 06:29 | -6.57797 | 136.31301 | 37812 ft | 484 kts | 323° |
| 2026-05-07 06:29 | -6.52478 | 136.27236 | 37810 ft | 483 kts | 323° |
| 2026-05-07 06:30 | -6.47121 | 136.23147 | 37817 ft | 484 kts | 324° |
| 2026-05-07 06:30 | -6.41760 | 136.19055 | 37814 ft | 482 kts | 323° |
| 2026-05-07 06:31 | -6.36407 | 136.14968 | 37810 ft | 484 kts | 323° |
| 2026-05-07 06:31 | -6.31036 | 136.10871 | 37811 ft | 484 kts | 324° |
| 2026-05-07 06:32 | -6.25694 | 136.06797 | 37812 ft | 487 kts | 323° |
| 2026-05-07 06:32 | -6.20273 | 136.02662 | 37812 ft | 489 kts | 324° |
| 2026-05-07 06:33 | -6.14856 | 135.98532 | 37813 ft | 488 kts | 324° |
| 2026-05-07 06:33 | -6.09444 | 135.94406 | 37812 ft | 489 kts | 323° |
| 2026-05-07 06:34 | -6.04026 | 135.90277 | 37808 ft | 487 kts | 323° |
| 2026-05-07 06:34 | -5.98611 | 135.86151 | 37810 ft | 490 kts | 323° |
| 2026-05-07 06:35 | -5.93170 | 135.82006 | 37813 ft | 491 kts | 324° |
| 2026-05-07 06:35 | -5.87725 | 135.77861 | 37811 ft | 492 kts | 323° |
| 2026-05-07 06:36 | -5.82308 | 135.73737 | 37811 ft | 491 kts | 324° |
| 2026-05-07 06:36 | -5.76868 | 135.69597 | 37810 ft | 490 kts | 323° |
| 2026-05-07 06:37 | -5.71425 | 135.65456 | 37806 ft | 491 kts | 323° |
| 2026-05-07 06:37 | -5.65976 | 135.61311 | 37806 ft | 492 kts | 323° |
| 2026-05-07 06:38 | -5.60507 | 135.57150 | 37805 ft | 493 kts | 323° |
| 2026-05-07 06:38 | -5.55038 | 135.52992 | 37804 ft | 492 kts | 324° |
| 2026-05-07 06:39 | -5.49580 | 135.48845 | 37804 ft | 492 kts | 323° |
| 2026-05-07 06:39 | -5.44145 | 135.44714 | 37805 ft | 493 kts | 324° |
| 2026-05-07 06:40 | -5.38673 | 135.40556 | 37804 ft | 495 kts | 323° |
| 2026-05-07 06:40 | -5.33152 | 135.36363 | 37805 ft | 497 kts | 323° |
| 2026-05-07 06:41 | -5.27640 | 135.32176 | 37807 ft | 496 kts | 323° |
| 2026-05-07 06:41 | -5.22171 | 135.28022 | 37807 ft | 496 kts | 323° |
| 2026-05-07 06:42 | -5.16669 | 135.23846 | 37804 ft | 496 kts | 323° |
| 2026-05-07 06:42 | -5.11158 | 135.19663 | 37804 ft | 496 kts | 323° |
| 2026-05-07 06:43 | -5.05644 | 135.15479 | 37802 ft | 496 kts | 323° |
| 2026-05-07 06:43 | -5.00171 | 135.11328 | 37802 ft | 496 kts | 323° |
| 2026-05-07 06:44 | -4.94669 | 135.07154 | 37802 ft | 496 kts | 323° |
| 2026-05-07 06:44 | -4.89153 | 135.02972 | 37802 ft | 496 kts | 323° |
| 2026-05-07 06:45 | -4.83650 | 134.98800 | 37795 ft | 496 kts | 323° |
| 2026-05-07 06:45 | -4.78143 | 134.94626 | 37798 ft | 496 kts | 323° |
| 2026-05-07 06:46 | -4.72635 | 134.90452 | 37799 ft | 496 kts | 323° |
| 2026-05-07 06:46 | -4.67122 | 134.86275 | 37798 ft | 496 kts | 323° |
| 2026-05-07 06:47 | -4.61652 | 134.82132 | 37799 ft | 496 kts | 323° |
| 2026-05-07 06:47 | -4.56139 | 134.77956 | 37799 ft | 497 kts | 323° |
| 2026-05-07 06:48 | -4.50607 | 134.73767 | 37799 ft | 499 kts | 324° |
| 2026-05-07 06:48 | -4.45064 | 134.69572 | 37800 ft | 499 kts | 323° |
| 2026-05-07 06:49 | -4.39517 | 134.65373 | 37796 ft | 499 kts | 323° |
| 2026-05-07 06:49 | -4.33974 | 134.61179 | 37796 ft | 499 kts | 323° |
| 2026-05-07 06:50 | -4.28463 | 134.57009 | 37796 ft | 498 kts | 323° |
| 2026-05-07 06:50 | -4.22937 | 134.52828 | 37799 ft | 498 kts | 323° |
| 2026-05-07 06:51 | -4.17403 | 134.48643 | 37799 ft | 498 kts | 323° |
| 2026-05-07 06:51 | -4.11870 | 134.44459 | 37801 ft | 498 kts | 323° |
| 2026-05-07 06:52 | -4.06337 | 134.40276 | 37799 ft | 497 kts | 323° |
| 2026-05-07 06:52 | -4.00821 | 134.36106 | 37804 ft | 496 kts | 323° |
| 2026-05-07 06:53 | -3.95354 | 134.31973 | 37804 ft | 495 kts | 323° |
| 2026-05-07 06:53 | -3.89850 | 134.27814 | 37807 ft | 495 kts | 323° |
| 2026-05-07 06:54 | -3.84343 | 134.23653 | 37808 ft | 496 kts | 323° |
| 2026-05-07 06:54 | -3.78827 | 134.19486 | 37808 ft | 496 kts | 323° |
| 2026-05-07 06:55 | -3.73309 | 134.15318 | 37807 ft | 497 kts | 323° |
| 2026-05-07 06:55 | -3.67788 | 134.11149 | 37807 ft | 497 kts | 323° |
| 2026-05-07 06:56 | -3.62270 | 134.06983 | 37810 ft | 497 kts | 323° |
| 2026-05-07 06:56 | -3.56752 | 134.02817 | 37804 ft | 497 kts | 323° |
| 2026-05-07 06:57 | -3.51267 | 133.98677 | 37801 ft | 497 kts | 323° |
| 2026-05-07 06:57 | -3.45747 | 133.94511 | 37802 ft | 497 kts | 323° |
| 2026-05-07 06:58 | -3.40222 | 133.90342 | 37790 ft | 497 kts | 323° |
| 2026-05-07 06:58 | -3.34703 | 133.86178 | 37791 ft | 497 kts | 323° |
| 2026-05-07 06:59 | -3.29220 | 133.82041 | 37782 ft | 497 kts | 323° |
| 2026-05-07 06:59 | -3.23706 | 133.77882 | 37782 ft | 496 kts | 323° |
| 2026-05-07 07:00 | -3.18187 | 133.73721 | 37777 ft | 496 kts | 323° |
| 2026-05-07 07:00 | -3.12671 | 133.69562 | 37776 ft | 496 kts | 323° |
| 2026-05-07 07:01 | -3.07148 | 133.65398 | 37772 ft | 496 kts | 323° |
| 2026-05-07 07:01 | -3.01626 | 133.61235 | 37771 ft | 496 kts | 323° |
| 2026-05-07 07:02 | -2.96178 | 133.57055 | 37771 ft | 497 kts | 321° |
| 2026-05-07 07:02 | -2.90795 | 133.52693 | 37772 ft | 497 kts | 321° |
| 2026-05-07 07:03 | -2.85438 | 133.48332 | 37766 ft | 497 kts | 321° |
| 2026-05-07 07:03 | -2.80094 | 133.44018 | 37766 ft | 497 kts | 321° |
| 2026-05-07 07:04 | -2.74699 | 133.39684 | 37769 ft | 497 kts | 321° |
| 2026-05-07 07:04 | -2.69299 | 133.35351 | 37768 ft | 496 kts | 321° |
| 2026-05-07 07:05 | -2.63911 | 133.31027 | 37765 ft | 496 kts | 321° |
| 2026-05-07 07:05 | -2.58555 | 133.26728 | 37769 ft | 496 kts | 321° |
| 2026-05-07 07:06 | -2.53167 | 133.22404 | 37771 ft | 496 kts | 321° |
| 2026-05-07 07:06 | -2.47778 | 133.18079 | 37771 ft | 497 kts | 322° |
| 2026-05-07 07:07 | -2.42373 | 133.13742 | 37772 ft | 498 kts | 322° |
| 2026-05-07 07:07 | -2.36964 | 133.09402 | 37771 ft | 498 kts | 321° |
| 2026-05-07 07:08 | -2.31550 | 133.05059 | 37769 ft | 498 kts | 322° |
| 2026-05-07 07:08 | -2.26179 | 133.00750 | 37767 ft | 498 kts | 322° |
| 2026-05-07 07:09 | -2.20772 | 132.96414 | 37768 ft | 497 kts | 321° |
| 2026-05-07 07:09 | -2.15378 | 132.92087 | 37768 ft | 497 kts | 321° |
| 2026-05-07 07:10 | -2.09985 | 132.87762 | 37769 ft | 497 kts | 321° |
| 2026-05-07 07:10 | -2.04597 | 132.83441 | 37766 ft | 496 kts | 321° |
| 2026-05-07 07:11 | -1.99205 | 132.79118 | 37769 ft | 497 kts | 321° |
| 2026-05-07 07:11 | -1.93846 | 132.74822 | 37768 ft | 496 kts | 321° |
| 2026-05-07 07:12 | -1.88466 | 132.70509 | 37771 ft | 495 kts | 321° |
| 2026-05-07 07:12 | -1.83092 | 132.66201 | 37771 ft | 495 kts | 321° |
| 2026-05-07 07:13 | -1.77713 | 132.61889 | 37771 ft | 495 kts | 321° |
| 2026-05-07 07:13 | -1.73239 | 132.58303 | 37769 ft | 496 kts | 321° |
| 2026-05-07 07:14 | -1.67852 | 132.53986 | 37778 ft | 496 kts | 322° |
| 2026-05-07 07:14 | -1.62475 | 132.49677 | 37777 ft | 495 kts | 322° |
| 2026-05-07 07:15 | -1.56235 | 132.44677 | 37785 ft | 494 kts | 321° |
| 2026-05-07 07:15 | -1.51737 | 132.41073 | 37785 ft | 495 kts | 321° |
| 2026-05-07 07:16 | -1.46361 | 132.36765 | 37787 ft | 496 kts | 322° |
| 2026-05-07 07:16 | -1.41007 | 132.32476 | 37787 ft | 496 kts | 321° |
| 2026-05-07 07:17 | -1.35621 | 132.28162 | 37788 ft | 496 kts | 321° |
| 2026-05-07 07:17 | -1.30242 | 132.23852 | 37793 ft | 495 kts | 321° |
| 2026-05-07 07:18 | -1.24863 | 132.19544 | 37790 ft | 495 kts | 322° |
| 2026-05-07 07:18 | -1.19466 | 132.15221 | 37796 ft | 497 kts | 322° |
| 2026-05-07 07:19 | -1.14099 | 132.10923 | 37792 ft | 497 kts | 322° |
| 2026-05-07 07:19 | -1.08708 | 132.06605 | 37799 ft | 495 kts | 322° |
| 2026-05-07 07:20 | -1.03329 | 132.02297 | 37793 ft | 495 kts | 321° |
| 2026-05-07 07:20 | -0.97961 | 131.97998 | 37803 ft | 495 kts | 321° |
| 2026-05-07 07:21 | -0.92573 | 131.93683 | 37796 ft | 496 kts | 322° |
| 2026-05-07 07:21 | -0.87183 | 131.89368 | 37793 ft | 496 kts | 321° |
| 2026-05-07 07:22 | -0.81837 | 131.85087 | 37791 ft | 495 kts | 322° |
| 2026-05-07 07:22 | -0.76461 | 131.80783 | 37787 ft | 494 kts | 322° |
| 2026-05-07 07:23 | -0.71091 | 131.76483 | 37784 ft | 494 kts | 322° |
| 2026-05-07 07:23 | -0.65717 | 131.72180 | 37786 ft | 495 kts | 322° |
| 2026-05-07 07:24 | -0.60337 | 131.67873 | 37785 ft | 495 kts | 322° |
| 2026-05-07 07:24 | -0.54955 | 131.63564 | 37778 ft | 495 kts | 322° |
| 2026-05-07 07:25 | -0.46951 | 131.57156 | 37782 ft | 493 kts | 322° |
| 2026-05-07 07:26 | -0.41584 | 131.52860 | 37782 ft | 494 kts | 322° |
| 2026-05-07 07:26 | -0.36205 | 131.48553 | 37782 ft | 495 kts | 322° |
| 2026-05-07 07:27 | -0.30838 | 131.44257 | 37785 ft | 494 kts | 322° |
| 2026-05-07 07:27 | -0.25499 | 131.39983 | 37787 ft | 494 kts | 322° |
| 2026-05-07 07:28 | -0.20138 | 131.35692 | 37790 ft | 493 kts | 322° |
| 2026-05-07 07:28 | -0.14784 | 131.31406 | 37791 ft | 494 kts | 322° |
| 2026-05-07 07:29 | -0.09416 | 131.27108 | 37788 ft | 494 kts | 322° |
| 2026-05-07 07:29 | -0.04038 | 131.22804 | 37790 ft | 494 kts | 322° |
| 2026-05-07 07:30 | 0.01337 | 131.18501 | 37788 ft | 494 kts | 322° |
| 2026-05-07 07:30 | 0.06690 | 131.14215 | 37790 ft | 491 kts | 322° |
| 2026-05-07 07:31 | 0.11996 | 131.09969 | 37791 ft | 494 kts | 321° |
| 2026-05-07 07:31 | 0.17363 | 131.05672 | 37791 ft | 495 kts | 321° |
| 2026-05-07 07:32 | 0.22742 | 131.01366 | 37792 ft | 495 kts | 321° |
| 2026-05-07 07:32 | 0.28120 | 130.97061 | 37788 ft | 495 kts | 321° |
| 2026-05-07 07:33 | 0.33498 | 130.92755 | 37786 ft | 495 kts | 321° |
| 2026-05-07 07:33 | 0.38875 | 130.88451 | 37787 ft | 496 kts | 321° |
| 2026-05-07 07:34 | 0.44264 | 130.84137 | 37788 ft | 496 kts | 321° |
| 2026-05-07 07:34 | 0.49620 | 130.79849 | 37788 ft | 496 kts | 321° |
| 2026-05-07 07:35 | 0.55012 | 130.75532 | 37790 ft | 496 kts | 321° |
| 2026-05-07 07:35 | 0.60399 | 130.71219 | 37791 ft | 496 kts | 321° |
| 2026-05-07 07:36 | 0.65793 | 130.66901 | 37788 ft | 496 kts | 321° |
| 2026-05-07 07:36 | 0.71182 | 130.62586 | 37788 ft | 496 kts | 321° |
| 2026-05-07 07:37 | 0.76568 | 130.58274 | 37791 ft | 496 kts | 321° |
| 2026-05-07 07:37 | 0.81918 | 130.53990 | 37793 ft | 496 kts | 321° |
| 2026-05-07 07:38 | 0.87306 | 130.49676 | 37790 ft | 496 kts | 321° |
| 2026-05-07 07:38 | 0.92688 | 130.45366 | 37791 ft | 496 kts | 321° |
| 2026-05-07 07:39 | 0.98083 | 130.41046 | 37789 ft | 497 kts | 321° |
| 2026-05-07 07:39 | 1.03481 | 130.36723 | 37790 ft | 497 kts | 321° |
| 2026-05-07 07:40 | 1.08883 | 130.32397 | 37790 ft | 498 kts | 321° |
| 2026-05-07 07:40 | 1.14298 | 130.28060 | 37790 ft | 498 kts | 321° |
| 2026-05-07 07:41 | 1.19697 | 130.23736 | 37789 ft | 496 kts | 321° |
| 2026-05-07 07:41 | 1.25077 | 130.19427 | 37790 ft | 495 kts | 321° |
| 2026-05-07 07:42 | 1.30425 | 130.15143 | 37790 ft | 495 kts | 321° |
| 2026-05-07 07:42 | 1.35801 | 130.10836 | 37790 ft | 495 kts | 321° |
| 2026-05-07 07:43 | 1.41186 | 130.06522 | 37792 ft | 495 kts | 321° |
| 2026-05-07 07:43 | 1.46567 | 130.02211 | 37786 ft | 495 kts | 321° |
| 2026-05-07 07:44 | 1.51910 | 129.97931 | 37791 ft | 495 kts | 321° |
| 2026-05-07 07:44 | 1.57280 | 129.93628 | 37787 ft | 494 kts | 321° |
| 2026-05-07 07:45 | 1.62658 | 129.89318 | 37788 ft | 495 kts | 321° |
| 2026-05-07 07:45 | 1.68024 | 129.85018 | 37788 ft | 494 kts | 321° |
| 2026-05-07 07:46 | 1.73390 | 129.80718 | 37786 ft | 494 kts | 321° |
| 2026-05-07 07:46 | 1.78733 | 129.76435 | 37788 ft | 496 kts | 321° |
| 2026-05-07 07:47 | 1.84128 | 129.72111 | 37788 ft | 496 kts | 321° |
| 2026-05-07 07:47 | 1.89508 | 129.67798 | 37788 ft | 496 kts | 321° |
| 2026-05-07 07:48 | 1.94891 | 129.63484 | 37785 ft | 496 kts | 321° |
| 2026-05-07 07:48 | 2.00328 | 129.59224 | 37785 ft | 496 kts | 322° |
| 2026-05-07 07:49 | 2.05865 | 129.55087 | 37788 ft | 497 kts | 323° |
| 2026-05-07 07:49 | 2.11405 | 129.50955 | 37787 ft | 497 kts | 322° |
| 2026-05-07 07:50 | 2.16928 | 129.46803 | 37788 ft | 497 kts | 322° |
| 2026-05-07 07:50 | 2.22412 | 129.42664 | 37788 ft | 497 kts | 322° |
| 2026-05-07 07:51 | 2.27933 | 129.38494 | 37786 ft | 497 kts | 322° |
| 2026-05-07 07:51 | 2.33455 | 129.34323 | 37787 ft | 497 kts | 322° |
| 2026-05-07 07:52 | 2.38977 | 129.30154 | 37789 ft | 497 kts | 322° |
| 2026-05-07 07:52 | 2.44463 | 129.26011 | 37787 ft | 497 kts | 322° |
| 2026-05-07 07:53 | 2.49979 | 129.21846 | 37787 ft | 497 kts | 322° |
| 2026-05-07 07:53 | 2.55493 | 129.17680 | 37788 ft | 497 kts | 322° |
| 2026-05-07 07:54 | 2.61028 | 129.13500 | 37787 ft | 497 kts | 322° |
| 2026-05-07 07:54 | 2.66549 | 129.09329 | 37787 ft | 497 kts | 322° |
| 2026-05-07 07:55 | 2.72058 | 129.05167 | 37787 ft | 496 kts | 322° |
| 2026-05-07 07:55 | 2.77542 | 129.01023 | 37790 ft | 496 kts | 322° |
| 2026-05-07 07:56 | 2.83057 | 128.96855 | 37794 ft | 496 kts | 322° |
| 2026-05-07 07:56 | 2.88569 | 128.92688 | 37793 ft | 496 kts | 322° |
| 2026-05-07 07:57 | 2.94085 | 128.88519 | 37793 ft | 496 kts | 322° |
| 2026-05-07 07:57 | 2.99566 | 128.84376 | 37792 ft | 495 kts | 322° |
| 2026-05-07 07:58 | 3.05067 | 128.80216 | 37793 ft | 495 kts | 322° |
| 2026-05-07 07:58 | 3.10564 | 128.76059 | 37793 ft | 495 kts | 322° |
| 2026-05-07 07:59 | 3.16052 | 128.71909 | 37793 ft | 495 kts | 322° |
| 2026-05-07 07:59 | 3.21553 | 128.67747 | 37794 ft | 495 kts | 322° |
| 2026-05-07 08:00 | 3.27045 | 128.63593 | 37791 ft | 495 kts | 322° |
| 2026-05-07 08:00 | 3.32501 | 128.59465 | 37793 ft | 494 kts | 322° |
| 2026-05-07 08:01 | 3.37988 | 128.55312 | 37794 ft | 494 kts | 322° |
| 2026-05-07 08:01 | 3.43479 | 128.51156 | 37793 ft | 494 kts | 322° |
| 2026-05-07 08:02 | 3.48969 | 128.47000 | 37793 ft | 494 kts | 322° |
| 2026-05-07 08:02 | 3.53531 | 128.43547 | 37793 ft | 494 kts | 322° |
| 2026-05-07 08:03 | 3.59019 | 128.39392 | 37795 ft | 494 kts | 322° |
| 2026-05-07 08:03 | 3.65391 | 128.34567 | 37796 ft | 493 kts | 322° |
| 2026-05-07 08:04 | 3.70867 | 128.30419 | 37794 ft | 493 kts | 322° |
| 2026-05-07 08:04 | 3.76342 | 128.26271 | 37793 ft | 493 kts | 322° |
| 2026-05-07 08:05 | 3.80903 | 128.22816 | 37791 ft | 493 kts | 322° |
| 2026-05-07 08:05 | 3.86384 | 128.18663 | 37796 ft | 493 kts | 322° |
| 2026-05-07 08:06 | 3.91857 | 128.14515 | 37800 ft | 492 kts | 322° |
| 2026-05-07 08:06 | 3.97275 | 128.10408 | 37799 ft | 490 kts | 322° |
| 2026-05-07 08:07 | 4.02707 | 128.06285 | 37797 ft | 490 kts | 322° |
| 2026-05-07 08:07 | 4.08108 | 128.02117 | 37796 ft | 490 kts | 321° |
| 2026-05-07 08:08 | 4.13506 | 127.97934 | 37799 ft | 490 kts | 321° |
| 2026-05-07 08:08 | 4.18868 | 127.93789 | 37799 ft | 490 kts | 322° |
| 2026-05-07 08:09 | 4.24267 | 127.89623 | 37796 ft | 489 kts | 321° |
| 2026-05-07 08:09 | 4.29662 | 127.85461 | 37796 ft | 489 kts | 321° |
| 2026-05-07 08:10 | 4.35052 | 127.81302 | 37799 ft | 489 kts | 321° |
| 2026-05-07 08:10 | 4.40441 | 127.77141 | 37800 ft | 489 kts | 321° |
| 2026-05-07 08:11 | 4.45803 | 127.73001 | 37801 ft | 489 kts | 321° |
| 2026-05-07 08:11 | 4.51193 | 127.68838 | 37804 ft | 490 kts | 321° |
| 2026-05-07 08:12 | 4.56588 | 127.64672 | 37800 ft | 488 kts | 321° |
| 2026-05-07 08:12 | 4.61961 | 127.60520 | 37802 ft | 487 kts | 321° |
| 2026-05-07 08:13 | 4.67340 | 127.56364 | 37801 ft | 487 kts | 321° |
| 2026-05-07 08:13 | 4.72683 | 127.52233 | 37799 ft | 487 kts | 321° |
| 2026-05-07 08:14 | 4.78060 | 127.48077 | 37796 ft | 487 kts | 321° |
| 2026-05-07 08:14 | 4.83432 | 127.43924 | 37799 ft | 488 kts | 321° |
| 2026-05-07 08:15 | 4.88712 | 127.39840 | 37802 ft | 487 kts | 321° |
| 2026-05-07 08:15 | 4.94086 | 127.35683 | 37804 ft | 487 kts | 321° |
| 2026-05-07 08:16 | 4.99471 | 127.31517 | 38009 ft | 488 kts | 321° |
| 2026-05-07 08:16 | 5.02126 | 127.29463 | 38271 ft | 487 kts | 321° |
| 2026-05-07 08:16 | 5.04815 | 127.27383 | 38534 ft | 486 kts | 321° |
| 2026-05-07 08:16 | 5.07491 | 127.25312 | 38744 ft | 485 kts | 321° |
| 2026-05-07 08:17 | 5.10170 | 127.23238 | 38917 ft | 485 kts | 321° |
| 2026-05-07 08:17 | 5.12840 | 127.21171 | 39126 ft | 484 kts | 321° |
| 2026-05-07 08:17 | 5.15468 | 127.19137 | 39311 ft | 483 kts | 321° |
| 2026-05-07 08:18 | 5.20807 | 127.15002 | 39485 ft | 486 kts | 321° |
| 2026-05-07 08:18 | 5.23489 | 127.12925 | 39651 ft | 486 kts | 321° |
| 2026-05-07 08:18 | 5.26164 | 127.10853 | 39778 ft | 486 kts | 321° |
| 2026-05-07 08:19 | 5.31506 | 127.06715 | 39807 ft | 484 kts | 321° |
| 2026-05-07 08:19 | 5.36846 | 127.02577 | 39807 ft | 484 kts | 321° |
| 2026-05-07 08:20 | 5.42179 | 126.98444 | 39809 ft | 484 kts | 321° |
| 2026-05-07 08:20 | 5.47501 | 126.94318 | 39806 ft | 483 kts | 321° |
| 2026-05-07 08:21 | 5.52820 | 126.90194 | 39796 ft | 483 kts | 322° |
| 2026-05-07 08:21 | 5.58103 | 126.86096 | 39810 ft | 483 kts | 322° |
| 2026-05-07 08:22 | 5.63424 | 126.81969 | 39810 ft | 483 kts | 322° |
| 2026-05-07 08:22 | 5.68741 | 126.77843 | 39809 ft | 483 kts | 322° |
| 2026-05-07 08:23 | 5.74062 | 126.73714 | 39800 ft | 483 kts | 322° |
| 2026-05-07 08:23 | 5.79385 | 126.69581 | 39814 ft | 483 kts | 322° |
| 2026-05-07 08:24 | 5.84709 | 126.65447 | 39817 ft | 484 kts | 322° |
| 2026-05-07 08:24 | 5.90038 | 126.61308 | 39815 ft | 484 kts | 322° |
| 2026-05-07 08:25 | 5.95365 | 126.57170 | 39819 ft | 484 kts | 322° |
| 2026-05-07 08:25 | 6.00697 | 126.53027 | 39818 ft | 484 kts | 322° |
| 2026-05-07 08:26 | 6.08662 | 126.46836 | 39815 ft | 485 kts | 321° |
| 2026-05-07 08:26 | 6.14012 | 126.42676 | 39803 ft | 486 kts | 322° |
| 2026-05-07 08:27 | 6.19342 | 126.38530 | 39801 ft | 483 kts | 322° |
| 2026-05-07 08:27 | 6.24659 | 126.34393 | 39798 ft | 482 kts | 322° |
| 2026-05-07 08:28 | 6.29935 | 126.30288 | 39821 ft | 482 kts | 322° |
| 2026-05-07 08:28 | 6.35241 | 126.26158 | 39819 ft | 482 kts | 321° |
| 2026-05-07 08:29 | 6.40551 | 126.22023 | 39808 ft | 483 kts | 321° |
| 2026-05-07 08:29 | 6.45872 | 126.17880 | 39795 ft | 484 kts | 321° |
| 2026-05-07 08:30 | 6.51195 | 126.13733 | 39803 ft | 484 kts | 321° |
| 2026-05-07 08:30 | 6.56518 | 126.09585 | 39804 ft | 484 kts | 321° |
| 2026-05-07 08:31 | 6.61841 | 126.05437 | 39786 ft | 484 kts | 321° |
| 2026-05-07 08:31 | 6.67161 | 126.01289 | 39781 ft | 484 kts | 321° |
| 2026-05-07 08:32 | 6.72489 | 125.97135 | 39797 ft | 484 kts | 322° |
| 2026-05-07 08:32 | 6.77814 | 125.92985 | 39781 ft | 484 kts | 322° |
| 2026-05-07 08:33 | 6.83143 | 125.88826 | 39796 ft | 485 kts | 322° |
| 2026-05-07 08:33 | 6.88441 | 125.84691 | 39793 ft | 485 kts | 322° |
| 2026-05-07 08:34 | 6.93767 | 125.80532 | 39793 ft | 485 kts | 322° |
| 2026-05-07 08:34 | 6.99100 | 125.76366 | 39793 ft | 485 kts | 322° |
| 2026-05-07 08:35 | 7.04440 | 125.72195 | 39790 ft | 486 kts | 322° |
| 2026-05-07 08:35 | 7.09781 | 125.68020 | 39792 ft | 486 kts | 321° |
| 2026-05-07 08:36 | 7.15415 | 125.64266 | 39796 ft | 487 kts | 330° |
| 2026-05-07 08:36 | 7.21406 | 125.61058 | 39789 ft | 488 kts | 332° |
| 2026-05-07 08:37 | 7.27455 | 125.57938 | 39794 ft | 488 kts | 332° |
| 2026-05-07 08:37 | 7.33509 | 125.54820 | 39801 ft | 488 kts | 332° |
| 2026-05-07 08:38 | 7.39524 | 125.51706 | 39813 ft | 488 kts | 332° |
| 2026-05-07 08:38 | 7.45569 | 125.48572 | 39812 ft | 489 kts | 332° |
| 2026-05-07 08:39 | 7.51632 | 125.45419 | 39798 ft | 490 kts | 332° |
| 2026-05-07 08:39 | 7.57699 | 125.42257 | 39820 ft | 491 kts | 332° |
| 2026-05-07 08:40 | 7.63729 | 125.39116 | 39819 ft | 490 kts | 332° |
| 2026-05-07 08:40 | 7.69796 | 125.35957 | 39827 ft | 490 kts | 332° |
| 2026-05-07 08:41 | 7.75858 | 125.32801 | 39813 ft | 490 kts | 331° |
| 2026-05-07 08:41 | 7.81911 | 125.29648 | 39834 ft | 489 kts | 332° |
| 2026-05-07 08:42 | 7.87968 | 125.26491 | 39833 ft | 489 kts | 332° |
| 2026-05-07 08:42 | 7.94020 | 125.23338 | 39843 ft | 488 kts | 331° |
| 2026-05-07 08:43 | 8.00054 | 125.20201 | 39842 ft | 487 kts | 332° |
| 2026-05-07 08:43 | 8.06045 | 125.17082 | 39839 ft | 487 kts | 332° |
| 2026-05-07 08:44 | 8.12081 | 125.13935 | 39863 ft | 487 kts | 331° |
| 2026-05-07 08:44 | 8.18096 | 125.10801 | 39845 ft | 487 kts | 332° |
| 2026-05-07 08:45 | 8.24113 | 125.07664 | 39863 ft | 487 kts | 332° |
| 2026-05-07 08:45 | 8.30105 | 125.04541 | 39865 ft | 487 kts | 332° |
| 2026-05-07 08:46 | 8.36129 | 125.01404 | 39853 ft | 487 kts | 332° |
| 2026-05-07 08:46 | 8.42157 | 124.98260 | 39861 ft | 487 kts | 332° |
| 2026-05-07 08:47 | 8.48192 | 124.95102 | 39844 ft | 489 kts | 332° |
| 2026-05-07 08:47 | 8.54239 | 124.91939 | 39850 ft | 489 kts | 332° |
| 2026-05-07 08:48 | 8.60248 | 124.88797 | 39844 ft | 489 kts | 332° |
| 2026-05-07 08:48 | 8.66294 | 124.85635 | 39838 ft | 489 kts | 332° |
| 2026-05-07 08:49 | 8.72341 | 124.82471 | 39821 ft | 489 kts | 333° |
| 2026-05-07 08:49 | 8.78407 | 124.79297 | 39836 ft | 492 kts | 333° |
| 2026-05-07 08:50 | 8.84500 | 124.76115 | 39824 ft | 493 kts | 333° |
| 2026-05-07 08:50 | 8.90599 | 124.72919 | 39803 ft | 494 kts | 333° |
| 2026-05-07 08:51 | 8.96715 | 124.69714 | 39816 ft | 496 kts | 333° |
| 2026-05-07 08:51 | 9.02833 | 124.66508 | 39816 ft | 495 kts | 333° |
| 2026-05-07 08:52 | 9.08970 | 124.63299 | 39804 ft | 497 kts | 332° |
| 2026-05-07 08:52 | 9.15086 | 124.60085 | 39804 ft | 499 kts | 332° |
| 2026-05-07 08:53 | 9.21242 | 124.56849 | 39816 ft | 498 kts | 332° |
| 2026-05-07 08:53 | 9.27393 | 124.53618 | 39815 ft | 497 kts | 332° |
| 2026-05-07 08:54 | 9.32496 | 124.50939 | 39802 ft | 498 kts | 332° |
| 2026-05-07 08:54 | 9.38652 | 124.47706 | 39824 ft | 499 kts | 331° |
| 2026-05-07 08:55 | 9.44799 | 124.44475 | 39821 ft | 497 kts | 331° |
| 2026-05-07 08:55 | 9.50935 | 124.41247 | 39820 ft | 495 kts | 331° |
| 2026-05-07 08:56 | 9.57063 | 124.38024 | 39825 ft | 496 kts | 332° |
| 2026-05-07 08:56 | 9.63207 | 124.34801 | 39815 ft | 497 kts | 331° |
| 2026-05-07 08:57 | 9.69302 | 124.31587 | 39830 ft | 496 kts | 330° |
| 2026-05-07 08:57 | 9.75432 | 124.28353 | 39831 ft | 495 kts | 332° |
| 2026-05-07 08:58 | 9.81553 | 124.25127 | 39830 ft | 496 kts | 332° |
| 2026-05-07 08:58 | 9.87680 | 124.21899 | 39834 ft | 497 kts | 331° |
| 2026-05-07 08:59 | 9.93807 | 124.18668 | 39833 ft | 494 kts | 332° |
| 2026-05-07 08:59 | 9.99891 | 124.15468 | 39836 ft | 492 kts | 331° |
| 2026-05-07 09:00 | 10.05966 | 124.12257 | 39833 ft | 493 kts | 331° |
| 2026-05-07 09:00 | 10.12075 | 124.09027 | 39830 ft | 495 kts | 331° |
| 2026-05-07 09:01 | 10.18163 | 124.05810 | 39832 ft | 496 kts | 331° |
| 2026-05-07 09:01 | 10.24288 | 124.02573 | 39832 ft | 495 kts | 332° |
| 2026-05-07 09:02 | 10.30386 | 123.99316 | 39816 ft | 494 kts | 329° |
| 2026-05-07 09:02 | 10.36160 | 123.95521 | 39829 ft | 495 kts | 325° |
| 2026-05-07 09:03 | 10.41823 | 123.91605 | 39830 ft | 496 kts | 324° |
| 2026-05-07 09:03 | 10.47522 | 123.87625 | 39837 ft | 497 kts | 324° |
| 2026-05-07 09:04 | 10.53232 | 123.83645 | 39843 ft | 498 kts | 324° |
| 2026-05-07 09:04 | 10.58950 | 123.79665 | 39835 ft | 497 kts | 324° |
| 2026-05-07 09:05 | 10.64665 | 123.75691 | 39851 ft | 497 kts | 324° |
| 2026-05-07 09:05 | 10.70339 | 123.71750 | 39847 ft | 496 kts | 324° |
| 2026-05-07 09:06 | 10.76031 | 123.67784 | 39846 ft | 495 kts | 324° |
| 2026-05-07 09:06 | 10.81732 | 123.63807 | 39846 ft | 498 kts | 324° |
| 2026-05-07 09:07 | 10.87459 | 123.59814 | 39844 ft | 498 kts | 324° |
| 2026-05-07 09:07 | 10.93192 | 123.55816 | 39846 ft | 499 kts | 324° |
| 2026-05-07 09:08 | 10.98922 | 123.51820 | 39839 ft | 499 kts | 324° |
| 2026-05-07 09:08 | 11.04614 | 123.47855 | 39843 ft | 500 kts | 324° |
| 2026-05-07 09:09 | 11.10351 | 123.43845 | 39837 ft | 499 kts | 324° |
| 2026-05-07 09:09 | 11.16095 | 123.39827 | 39841 ft | 500 kts | 324° |
| 2026-05-07 09:10 | 11.21824 | 123.35820 | 39840 ft | 499 kts | 324° |
| 2026-05-07 09:10 | 11.27557 | 123.31811 | 39843 ft | 500 kts | 324° |
| 2026-05-07 09:11 | 11.33291 | 123.27800 | 39844 ft | 500 kts | 324° |
| 2026-05-07 09:11 | 11.38995 | 123.23807 | 39846 ft | 500 kts | 324° |
| 2026-05-07 09:12 | 11.44731 | 123.19789 | 39841 ft | 500 kts | 324° |
| 2026-05-07 09:12 | 11.50469 | 123.15768 | 39843 ft | 500 kts | 324° |
| 2026-05-07 09:13 | 11.56226 | 123.11732 | 39840 ft | 502 kts | 324° |
| 2026-05-07 09:13 | 11.61980 | 123.07696 | 39841 ft | 502 kts | 324° |
| 2026-05-07 09:14 | 11.67725 | 123.03664 | 39845 ft | 501 kts | 324° |
| 2026-05-07 09:14 | 11.73469 | 122.99631 | 39847 ft | 501 kts | 324° |
| 2026-05-07 09:15 | 11.79216 | 122.95593 | 39843 ft | 501 kts | 324° |
| 2026-05-07 09:15 | 11.84923 | 122.91581 | 39842 ft | 501 kts | 324° |
| 2026-05-07 09:16 | 11.90666 | 122.87542 | 39848 ft | 501 kts | 324° |
| 2026-05-07 09:16 | 11.96408 | 122.83503 | 39836 ft | 500 kts | 324° |
| 2026-05-07 09:17 | 12.02140 | 122.79467 | 39836 ft | 500 kts | 324° |
| 2026-05-07 09:17 | 12.07855 | 122.75442 | 39844 ft | 498 kts | 323° |
| 2026-05-07 09:18 | 12.13558 | 122.71423 | 39848 ft | 497 kts | 323° |
| 2026-05-07 09:18 | 12.19251 | 122.67408 | 39853 ft | 497 kts | 323° |
| 2026-05-07 09:19 | 12.24945 | 122.63391 | 39847 ft | 497 kts | 323° |
| 2026-05-07 09:19 | 12.30634 | 122.59376 | 39845 ft | 495 kts | 323° |
| 2026-05-07 09:20 | 12.36250 | 122.55410 | 39850 ft | 493 kts | 323° |
| 2026-05-07 09:20 | 12.41902 | 122.51422 | 39852 ft | 493 kts | 323° |
| 2026-05-07 09:21 | 12.47553 | 122.47423 | 39849 ft | 493 kts | 323° |
| 2026-05-07 09:21 | 12.53198 | 122.43426 | 39847 ft | 493 kts | 323° |
| 2026-05-07 09:22 | 12.58840 | 122.39431 | 39855 ft | 493 kts | 323° |
| 2026-05-07 09:22 | 12.64452 | 122.35457 | 39854 ft | 493 kts | 323° |
| 2026-05-07 09:23 | 12.70108 | 122.31449 | 39850 ft | 494 kts | 323° |
| 2026-05-07 09:23 | 12.75770 | 122.27435 | 39837 ft | 495 kts | 323° |
| 2026-05-07 09:24 | 12.81425 | 122.23424 | 39847 ft | 495 kts | 323° |
| 2026-05-07 09:24 | 12.87090 | 122.19403 | 39840 ft | 495 kts | 323° |
| 2026-05-07 09:25 | 12.92742 | 122.15389 | 39851 ft | 495 kts | 323° |
| 2026-05-07 09:25 | 12.98402 | 122.11367 | 39846 ft | 495 kts | 323° |
| 2026-05-07 09:26 | 13.04058 | 122.07346 | 39851 ft | 494 kts | 323° |
| 2026-05-07 09:26 | 13.09667 | 122.03357 | 39844 ft | 493 kts | 323° |
| 2026-05-07 09:27 | 13.15302 | 121.99345 | 39851 ft | 492 kts | 323° |
| 2026-05-07 09:28 | 13.23745 | 121.93331 | 39843 ft | 492 kts | 323° |
| 2026-05-07 09:28 | 13.29373 | 121.89319 | 39849 ft | 492 kts | 323° |
| 2026-05-07 09:29 | 13.35000 | 121.85306 | 39851 ft | 492 kts | 323° |
| 2026-05-07 09:29 | 13.40627 | 121.81291 | 39854 ft | 492 kts | 323° |
| 2026-05-07 09:30 | 13.46235 | 121.77288 | 39854 ft | 490 kts | 323° |
| 2026-05-07 09:30 | 13.51829 | 121.73291 | 39845 ft | 489 kts | 323° |
| 2026-05-07 09:31 | 13.57414 | 121.69298 | 39848 ft | 489 kts | 323° |
| 2026-05-07 09:31 | 13.62966 | 121.65326 | 39853 ft | 489 kts | 323° |
| 2026-05-07 09:32 | 13.68553 | 121.61329 | 39859 ft | 489 kts | 323° |
| 2026-05-07 09:32 | 13.74142 | 121.57333 | 39858 ft | 489 kts | 322° |
| 2026-05-07 09:33 | 13.79715 | 121.53336 | 39867 ft | 488 kts | 322° |
| 2026-05-07 09:33 | 13.85286 | 121.49339 | 39853 ft | 488 kts | 322° |
| 2026-05-07 09:34 | 13.90861 | 121.45337 | 39845 ft | 488 kts | 323° |
| 2026-05-07 09:34 | 13.96434 | 121.41337 | 39850 ft | 488 kts | 322° |
| 2026-05-07 09:35 | 14.02006 | 121.37335 | 39850 ft | 488 kts | 323° |
| 2026-05-07 09:35 | 14.07578 | 121.33331 | 39856 ft | 488 kts | 322° |
| 2026-05-07 09:36 | 14.13112 | 121.29361 | 39846 ft | 487 kts | 322° |
| 2026-05-07 09:36 | 14.18674 | 121.25355 | 39846 ft | 487 kts | 322° |
| 2026-05-07 09:37 | 14.24228 | 121.21351 | 39849 ft | 488 kts | 323° |
| 2026-05-07 09:37 | 14.29807 | 121.17337 | 39840 ft | 488 kts | 323° |
| 2026-05-07 09:38 | 14.35328 | 121.13352 | 39834 ft | 488 kts | 323° |
| 2026-05-07 09:38 | 14.40931 | 121.09307 | 39845 ft | 488 kts | 323° |
| 2026-05-07 09:39 | 14.46463 | 121.05310 | 39831 ft | 488 kts | 323° |
| 2026-05-07 09:39 | 14.52025 | 121.01301 | 39826 ft | 488 kts | 324° |
| 2026-05-07 09:40 | 14.57682 | 120.97430 | 39828 ft | 488 kts | 326° |
| 2026-05-07 09:40 | 14.63378 | 120.93628 | 39830 ft | 487 kts | 326° |
| 2026-05-07 09:41 | 14.69070 | 120.89804 | 39833 ft | 487 kts | 326° |
| 2026-05-07 09:41 | 14.74740 | 120.85975 | 39829 ft | 487 kts | 326° |
| 2026-05-07 09:42 | 14.79449 | 120.82778 | 39834 ft | 485 kts | 326° |
| 2026-05-07 09:42 | 14.85086 | 120.78943 | 39834 ft | 484 kts | 326° |
| 2026-05-07 09:43 | 14.90670 | 120.75145 | 39839 ft | 484 kts | 326° |
| 2026-05-07 09:43 | 14.96304 | 120.71317 | 39835 ft | 484 kts | 326° |
| 2026-05-07 09:44 | 15.01940 | 120.67488 | 39835 ft | 483 kts | 326° |
| 2026-05-07 09:44 | 15.07560 | 120.63658 | 39831 ft | 483 kts | 326° |
| 2026-05-07 09:45 | 15.13149 | 120.59849 | 39827 ft | 484 kts | 326° |
| 2026-05-07 09:45 | 15.18772 | 120.56017 | 39827 ft | 484 kts | 326° |
| 2026-05-07 09:46 | 15.24575 | 120.52490 | 39831 ft | 483 kts | 330° |
| 2026-05-07 09:46 | 15.30538 | 120.49281 | 39830 ft | 483 kts | 332° |
| 2026-05-07 09:47 | 15.36466 | 120.46056 | 39836 ft | 485 kts | 331° |
| 2026-05-07 09:47 | 15.42414 | 120.42745 | 39839 ft | 484 kts | 331° |
| 2026-05-07 09:48 | 15.48330 | 120.39417 | 39851 ft | 483 kts | 330° |
| 2026-05-07 09:48 | 15.54230 | 120.36087 | 39849 ft | 483 kts | 330° |
| 2026-05-07 09:49 | 15.60080 | 120.32783 | 39847 ft | 480 kts | 330° |
| 2026-05-07 09:49 | 15.65941 | 120.29468 | 39846 ft | 480 kts | 330° |
| 2026-05-07 09:50 | 15.71822 | 120.26145 | 39847 ft | 480 kts | 330° |
| 2026-05-07 09:50 | 15.77705 | 120.22820 | 39856 ft | 482 kts | 330° |
| 2026-05-07 09:51 | 15.83585 | 120.19495 | 39838 ft | 479 kts | 330° |
| 2026-05-07 09:51 | 15.89455 | 120.16174 | 39845 ft | 481 kts | 330° |
| 2026-05-07 09:52 | 15.95332 | 120.12846 | 39846 ft | 482 kts | 330° |
| 2026-05-07 09:52 | 16.01205 | 120.09519 | 39845 ft | 483 kts | 330° |
| 2026-05-07 09:53 | 16.07082 | 120.06187 | 39838 ft | 480 kts | 331° |
| 2026-05-07 09:53 | 16.12957 | 120.02854 | 39840 ft | 481 kts | 331° |
| 2026-05-07 09:54 | 16.18823 | 119.99523 | 39841 ft | 479 kts | 331° |
| 2026-05-07 09:54 | 16.24653 | 119.96211 | 39840 ft | 476 kts | 331° |
| 2026-05-07 09:55 | 16.30428 | 119.92928 | 39841 ft | 476 kts | 331° |
| 2026-05-07 09:55 | 16.36270 | 119.89603 | 39841 ft | 478 kts | 331° |
| 2026-05-07 09:56 | 16.42121 | 119.86273 | 39844 ft | 480 kts | 331° |
| 2026-05-07 09:56 | 16.47969 | 119.82941 | 39843 ft | 478 kts | 331° |
| 2026-05-07 09:57 | 16.53814 | 119.79609 | 39844 ft | 480 kts | 331° |
| 2026-05-07 09:57 | 16.59648 | 119.76281 | 39846 ft | 481 kts | 331° |
| 2026-05-07 09:58 | 16.65525 | 119.72926 | 39848 ft | 480 kts | 331° |
| 2026-05-07 09:58 | 16.71387 | 119.69577 | 39849 ft | 480 kts | 331° |
| 2026-05-07 09:59 | 16.77243 | 119.66229 | 39851 ft | 478 kts | 331° |
| 2026-05-07 09:59 | 16.83055 | 119.62904 | 39850 ft | 480 kts | 331° |
| 2026-05-07 10:00 | 16.88911 | 119.59551 | 39852 ft | 479 kts | 330° |
| 2026-05-07 10:00 | 16.94768 | 119.56196 | 39854 ft | 479 kts | 330° |
| 2026-05-07 10:01 | 17.00605 | 119.52850 | 39857 ft | 478 kts | 331° |
| 2026-05-07 10:01 | 17.06436 | 119.49504 | 39855 ft | 478 kts | 331° |
| 2026-05-07 10:02 | 17.12273 | 119.46153 | 39859 ft | 479 kts | 330° |
| 2026-05-07 10:02 | 17.18085 | 119.42814 | 39854 ft | 479 kts | 330° |
| 2026-05-07 10:03 | 17.23916 | 119.39461 | 39854 ft | 478 kts | 330° |
| 2026-05-07 10:03 | 17.29753 | 119.36102 | 39856 ft | 478 kts | 330° |
| 2026-05-07 10:04 | 17.35583 | 119.32745 | 39855 ft | 479 kts | 330° |
| 2026-05-07 10:04 | 17.41430 | 119.29376 | 39858 ft | 479 kts | 330° |
| 2026-05-07 10:05 | 17.47271 | 119.26008 | 39858 ft | 479 kts | 330° |
| 2026-05-07 10:05 | 17.53104 | 119.22642 | 39857 ft | 477 kts | 330° |
| 2026-05-07 10:06 | 17.58884 | 119.19304 | 39859 ft | 477 kts | 330° |
| 2026-05-07 10:06 | 17.64701 | 119.15942 | 39859 ft | 477 kts | 330° |
| 2026-05-07 10:07 | 17.70516 | 119.12579 | 39862 ft | 477 kts | 330° |
| 2026-05-07 10:07 | 17.76327 | 119.09215 | 39863 ft | 477 kts | 330° |
| 2026-05-07 10:08 | 17.82135 | 119.05851 | 39861 ft | 476 kts | 330° |
| 2026-05-07 10:08 | 17.87901 | 119.02509 | 39864 ft | 475 kts | 330° |
| 2026-05-07 10:09 | 17.93694 | 118.99149 | 39864 ft | 476 kts | 330° |
| 2026-05-07 10:09 | 17.99292 | 118.95462 | 39867 ft | 475 kts | 320° |
| 2026-05-07 10:10 | 18.04060 | 118.90651 | 39871 ft | 475 kts | 314° |
| 2026-05-07 10:10 | 18.08595 | 118.85594 | 39870 ft | 475 kts | 313° |
| 2026-05-07 10:11 | 18.13066 | 118.80530 | 39872 ft | 475 kts | 313° |
| 2026-05-07 10:11 | 18.17569 | 118.75450 | 39870 ft | 474 kts | 313° |
| 2026-05-07 10:12 | 18.22086 | 118.70373 | 39870 ft | 474 kts | 313° |
| 2026-05-07 10:12 | 18.26596 | 118.65307 | 39873 ft | 474 kts | 313° |
| 2026-05-07 10:13 | 18.31113 | 118.60230 | 39873 ft | 475 kts | 313° |
| 2026-05-07 10:13 | 18.35621 | 118.55157 | 39873 ft | 475 kts | 313° |
| 2026-05-07 10:14 | 18.37668 | 118.52852 | 39873 ft | 475 kts | 313° |
| 2026-05-07 10:14 | 18.42147 | 118.47805 | 39878 ft | 475 kts | 313° |
| 2026-05-07 10:15 | 18.46660 | 118.42717 | 39878 ft | 475 kts | 313° |
| 2026-05-07 10:15 | 18.51163 | 118.37634 | 39879 ft | 474 kts | 313° |
| 2026-05-07 10:16 | 18.55661 | 118.32553 | 39879 ft | 473 kts | 313° |
| 2026-05-07 10:16 | 18.60151 | 118.27477 | 39877 ft | 473 kts | 313° |
| 2026-05-07 10:17 | 18.64639 | 118.22400 | 39879 ft | 473 kts | 313° |
| 2026-05-07 10:17 | 18.69125 | 118.17321 | 39879 ft | 473 kts | 313° |
| 2026-05-07 10:18 | 18.73610 | 118.12238 | 39881 ft | 473 kts | 313° |
| 2026-05-07 10:18 | 18.78093 | 118.07152 | 39883 ft | 473 kts | 313° |
| 2026-05-07 10:19 | 18.81540 | 118.03240 | 39884 ft | 473 kts | 313° |
| 2026-05-07 10:19 | 18.85876 | 117.98314 | 39890 ft | 472 kts | 312° |
| 2026-05-07 10:20 | 18.90344 | 117.93235 | 39884 ft | 470 kts | 312° |
| 2026-05-07 10:20 | 18.92233 | 117.91087 | 39884 ft | 470 kts | 312° |
| 2026-05-07 10:21 | 18.95868 | 117.86950 | 39884 ft | 470 kts | 312° |
| 2026-05-07 10:21 | 19.00313 | 117.81886 | 39887 ft | 470 kts | 312° |
| 2026-05-07 10:22 | 19.04764 | 117.76818 | 39887 ft | 470 kts | 312° |
| 2026-05-07 10:22 | 19.09203 | 117.71754 | 39886 ft | 470 kts | 312° |
| 2026-05-07 10:23 | 19.13643 | 117.66678 | 39886 ft | 470 kts | 312° |
| 2026-05-07 10:23 | 19.18079 | 117.61606 | 39887 ft | 470 kts | 312° |
| 2026-05-07 10:24 | 19.22523 | 117.56522 | 39893 ft | 470 kts | 312° |
| 2026-05-07 10:24 | 19.26928 | 117.51478 | 39890 ft | 468 kts | 312° |
| 2026-05-07 10:25 | 19.31348 | 117.46414 | 39888 ft | 468 kts | 312° |
| 2026-05-07 10:25 | 19.35760 | 117.41354 | 39889 ft | 467 kts | 312° |
| 2026-05-07 10:26 | 19.40164 | 117.36299 | 39891 ft | 467 kts | 312° |
| 2026-05-07 10:26 | 19.44573 | 117.31234 | 39892 ft | 467 kts | 312° |
| 2026-05-07 10:27 | 19.48976 | 117.26172 | 39895 ft | 467 kts | 312° |
| 2026-05-07 10:27 | 19.53378 | 117.21105 | 39895 ft | 467 kts | 312° |
| 2026-05-07 10:28 | 19.57781 | 117.16034 | 39890 ft | 467 kts | 313° |
| 2026-05-07 10:28 | 19.62182 | 117.10960 | 39890 ft | 466 kts | 312° |
| 2026-05-07 10:29 | 19.66565 | 117.05903 | 39890 ft | 465 kts | 312° |
| 2026-05-07 10:29 | 19.70951 | 117.00838 | 39893 ft | 465 kts | 312° |
| 2026-05-07 10:30 | 19.77499 | 116.93268 | 39895 ft | 465 kts | 312° |
| 2026-05-07 10:30 | 19.81877 | 116.88201 | 39893 ft | 465 kts | 312° |
| 2026-05-07 10:31 | 19.86250 | 116.83136 | 39895 ft | 465 kts | 313° |
| 2026-05-07 10:31 | 19.90618 | 116.78072 | 39898 ft | 464 kts | 312° |
| 2026-05-07 10:32 | 19.94248 | 116.73860 | 39895 ft | 464 kts | 313° |
| 2026-05-07 10:32 | 19.98573 | 116.68765 | 39902 ft | 464 kts | 309° |
| 2026-05-07 10:33 | 20.02068 | 116.62997 | 39897 ft | 465 kts | 300° |
| 2026-05-07 10:33 | 20.05108 | 116.56977 | 39899 ft | 465 kts | 298° |
| 2026-05-07 10:34 | 20.08092 | 116.50876 | 39900 ft | 464 kts | 298° |
| 2026-05-07 10:34 | 20.11071 | 116.44789 | 39901 ft | 464 kts | 298° |
| 2026-05-07 10:35 | 20.14066 | 116.38700 | 39900 ft | 464 kts | 298° |
| 2026-05-07 10:35 | 20.17062 | 116.32617 | 39903 ft | 464 kts | 298° |
| 2026-05-07 10:36 | 20.20052 | 116.26540 | 39900 ft | 464 kts | 298° |
| 2026-05-07 10:36 | 20.23042 | 116.20456 | 39907 ft | 462 kts | 299° |
| 2026-05-07 10:37 | 20.26024 | 116.14381 | 39907 ft | 462 kts | 299° |
| 2026-05-07 10:37 | 20.28998 | 116.08314 | 39906 ft | 462 kts | 299° |
| 2026-05-07 10:38 | 20.31951 | 116.02285 | 39902 ft | 462 kts | 299° |
| 2026-05-07 10:38 | 20.34927 | 115.96215 | 39906 ft | 462 kts | 298° |
| 2026-05-07 10:39 | 20.37890 | 115.90145 | 39906 ft | 461 kts | 299° |
| 2026-05-07 10:39 | 20.40848 | 115.84079 | 39913 ft | 461 kts | 299° |
| 2026-05-07 10:40 | 20.43796 | 115.78031 | 39908 ft | 458 kts | 299° |
| 2026-05-07 10:40 | 20.46714 | 115.72041 | 39906 ft | 457 kts | 299° |
| 2026-05-07 10:41 | 20.49643 | 115.66024 | 39910 ft | 457 kts | 299° |
| 2026-05-07 10:41 | 20.52570 | 115.60003 | 39906 ft | 457 kts | 299° |
| 2026-05-07 10:42 | 20.55814 | 115.54197 | 39907 ft | 455 kts | 309° |
| 2026-05-07 10:42 | 20.57887 | 115.51656 | 39762 ft | 453 kts | 314° |
| 2026-05-07 10:42 | 20.60066 | 115.49245 | 39143 ft | 452 kts | 315° |
| 2026-05-07 10:43 | 20.62303 | 115.46874 | 38439 ft | 453 kts | 316° |
| 2026-05-07 10:43 | 20.64568 | 115.44522 | 37699 ft | 453 kts | 316° |
| 2026-05-07 10:43 | 20.66832 | 115.42183 | 37006 ft | 453 kts | 316° |
| 2026-05-07 10:43 | 20.69092 | 115.39845 | 36319 ft | 453 kts | 316° |
| 2026-05-07 10:44 | 20.71349 | 115.37500 | 35628 ft | 453 kts | 316° |
| 2026-05-07 10:44 | 20.73614 | 115.35135 | 34907 ft | 455 kts | 316° |
| 2026-05-07 10:44 | 20.74529 | 115.34179 | 34579 ft | 457 kts | 316° |
| 2026-05-07 10:45 | 20.75836 | 115.32809 | 34119 ft | 459 kts | 316° |
| 2026-05-07 10:45 | 20.78135 | 115.30399 | 33198 ft | 464 kts | 315° |
| 2026-05-07 10:45 | 20.80447 | 115.27972 | 32299 ft | 467 kts | 315° |
| 2026-05-07 10:45 | 20.82756 | 115.25547 | 31404 ft | 471 kts | 315° |
| 2026-05-07 10:46 | 20.85109 | 115.23075 | 30566 ft | 474 kts | 314° |
| 2026-05-07 10:46 | 20.87455 | 115.20608 | 29959 ft | 471 kts | 314° |
| 2026-05-07 10:46 | 20.89782 | 115.18163 | 29250 ft | 468 kts | 314° |
| 2026-05-07 10:46 | 20.92074 | 115.15757 | 28600 ft | 464 kts | 314° |
| 2026-05-07 10:47 | 20.94363 | 115.13344 | 27978 ft | 460 kts | 314° |
| 2026-05-07 10:47 | 20.96636 | 115.10948 | 27334 ft | 457 kts | 314° |
| 2026-05-07 10:47 | 20.98893 | 115.08568 | 26712 ft | 453 kts | 314° |
| 2026-05-07 10:47 | 21.01135 | 115.06204 | 26189 ft | 453 kts | 314° |
| 2026-05-07 10:48 | 21.03388 | 115.03832 | 25961 ft | 456 kts | 314° |
| 2026-05-07 10:48 | 21.05657 | 115.01440 | 25903 ft | 456 kts | 314° |
| 2026-05-07 10:48 | 21.07884 | 114.99088 | 25906 ft | 455 kts | 314° |
| 2026-05-07 10:48 | 21.10130 | 114.96715 | 25909 ft | 454 kts | 314° |
| 2026-05-07 10:49 | 21.12371 | 114.94344 | 25810 ft | 445 kts | 314° |
| 2026-05-07 10:49 | 21.14473 | 114.92122 | 25144 ft | 428 kts | 314° |
| 2026-05-07 10:49 | 21.16581 | 114.89892 | 23889 ft | 426 kts | 313° |
| 2026-05-07 10:49 | 21.18705 | 114.87640 | 22241 ft | 432 kts | 313° |
| 2026-05-07 10:50 | 21.20836 | 114.85382 | 21264 ft | 426 kts | 313° |
| 2026-05-07 10:50 | 21.22907 | 114.83190 | 20955 ft | 424 kts | 313° |
| 2026-05-07 10:50 | 21.24980 | 114.80994 | 20541 ft | 423 kts | 313° |
| 2026-05-07 10:50 | 21.27064 | 114.78786 | 20077 ft | 419 kts | 313° |
| 2026-05-07 10:51 | 21.29134 | 114.76595 | 19606 ft | 417 kts | 314° |
| 2026-05-07 10:51 | 21.31195 | 114.74414 | 19137 ft | 414 kts | 314° |
| 2026-05-07 10:51 | 21.33206 | 114.72285 | 18679 ft | 412 kts | 314° |
| 2026-05-07 10:51 | 21.35227 | 114.70143 | 18218 ft | 410 kts | 314° |
| 2026-05-07 10:52 | 21.37246 | 114.68000 | 17712 ft | 407 kts | 314° |
| 2026-05-07 10:52 | 21.39257 | 114.65865 | 17240 ft | 404 kts | 314° |
| 2026-05-07 10:52 | 21.41249 | 114.63749 | 16791 ft | 402 kts | 314° |
| 2026-05-07 10:52 | 21.43229 | 114.61645 | 16336 ft | 399 kts | 314° |
| 2026-05-07 10:53 | 21.45200 | 114.59550 | 15881 ft | 397 kts | 314° |
| 2026-05-07 10:53 | 21.47165 | 114.57481 | 15442 ft | 394 kts | 315° |
| 2026-05-07 10:53 | 21.49383 | 114.55775 | 15102 ft | 389 kts | 332° |
| 2026-05-07 10:53 | 21.51868 | 114.54736 | 14874 ft | 377 kts | 340° |
| 2026-05-07 10:54 | 21.54217 | 114.53925 | 14619 ft | 366 kts | 340° |
| 2026-05-07 10:54 | 21.56620 | 114.53105 | 14149 ft | 356 kts | 340° |
| 2026-05-07 10:54 | 21.58965 | 114.52299 | 13351 ft | 349 kts | 340° |
| 2026-05-07 10:54 | 21.61152 | 114.51288 | 13081 ft | 343 kts | 327° |
| 2026-05-07 10:55 | 21.62965 | 114.49687 | 12741 ft | 339 kts | 313° |
| 2026-05-07 10:55 | 21.64580 | 114.47845 | 12433 ft | 337 kts | 311° |
| 2026-05-07 10:55 | 21.66163 | 114.45988 | 12198 ft | 336 kts | 311° |
| 2026-05-07 10:55 | 21.67745 | 114.44139 | 11955 ft | 336 kts | 311° |
| 2026-05-07 10:56 | 21.69329 | 114.42295 | 11724 ft | 334 kts | 311° |
| 2026-05-07 10:56 | 21.70909 | 114.40462 | 11482 ft | 334 kts | 311° |
| 2026-05-07 10:56 | 21.72487 | 114.38634 | 11239 ft | 333 kts | 311° |
| 2026-05-07 10:56 | 21.74060 | 114.36813 | 11015 ft | 332 kts | 311° |
| 2026-05-07 10:57 | 21.75613 | 114.35014 | 10791 ft | 331 kts | 311° |
| 2026-05-07 10:57 | 21.77175 | 114.33206 | 10612 ft | 326 kts | 311° |
| 2026-05-07 10:57 | 21.78683 | 114.31461 | 10478 ft | 311 kts | 311° |
| 2026-05-07 10:57 | 21.80129 | 114.29787 | 10272 ft | 300 kts | 311° |
| 2026-05-07 10:58 | 21.81530 | 114.28164 | 10085 ft | 293 kts | 311° |
| 2026-05-07 10:58 | 21.82913 | 114.26561 | 9833 ft | 292 kts | 311° |
| 2026-05-07 10:58 | 21.84297 | 114.24954 | 9589 ft | 292 kts | 311° |
| 2026-05-07 10:58 | 21.85677 | 114.23352 | 9385 ft | 291 kts | 311° |
| 2026-05-07 10:59 | 21.87053 | 114.21756 | 9180 ft | 290 kts | 310° |
| 2026-05-07 10:59 | 21.88418 | 114.20170 | 8979 ft | 288 kts | 310° |
| 2026-05-07 10:59 | 21.89617 | 114.18464 | 8767 ft | 285 kts | 300° |
| 2026-05-07 10:59 | 21.90575 | 114.16685 | 8568 ft | 284 kts | 297° |
| 2026-05-07 11:00 | 21.91529 | 114.14825 | 8386 ft | 283 kts | 297° |
| 2026-05-07 11:00 | 21.92477 | 114.12974 | 8189 ft | 282 kts | 297° |
| 2026-05-07 11:00 | 21.93426 | 114.11130 | 7987 ft | 281 kts | 297° |
| 2026-05-07 11:00 | 21.94375 | 114.09289 | 7788 ft | 280 kts | 297° |
| 2026-05-07 11:01 | 21.95321 | 114.07455 | 7586 ft | 280 kts | 297° |
| 2026-05-07 11:01 | 21.96265 | 114.05626 | 7390 ft | 279 kts | 298° |
| 2026-05-07 11:01 | 21.97207 | 114.03801 | 7194 ft | 279 kts | 298° |
| 2026-05-07 11:01 | 21.98148 | 114.01976 | 6995 ft | 278 kts | 298° |
| 2026-05-07 11:02 | 21.99090 | 114.00152 | 6795 ft | 277 kts | 298° |
| 2026-05-07 11:02 | 22.00023 | 113.98343 | 6597 ft | 276 kts | 298° |
| 2026-05-07 11:02 | 22.00956 | 113.96534 | 6406 ft | 276 kts | 298° |
| 2026-05-07 11:02 | 22.01886 | 113.94729 | 6205 ft | 275 kts | 298° |
| 2026-05-07 11:03 | 22.02844 | 113.92869 | 6091 ft | 296 kts | 298° |
| 2026-05-07 11:03 | 22.03867 | 113.90883 | 6046 ft | 306 kts | 298° |
| 2026-05-07 11:03 | 22.04880 | 113.88919 | 5719 ft | 292 kts | 298° |
| 2026-05-07 11:03 | 22.05883 | 113.86970 | 5422 ft | 304 kts | 298° |
| 2026-05-07 11:04 | 22.06912 | 113.84971 | 5207 ft | 305 kts | 298° |
| 2026-05-07 11:04 | 22.07936 | 113.82980 | 4953 ft | 303 kts | 298° |
| 2026-05-07 11:04 | 22.08957 | 113.80994 | 4768 ft | 304 kts | 298° |
| 2026-05-07 11:04 | 22.09987 | 113.79006 | 4549 ft | 302 kts | 299° |
| 2026-05-07 11:05 | 22.11357 | 113.77306 | 4375 ft | 300 kts | 324° |
| 2026-05-07 11:05 | 22.13125 | 113.76272 | 4189 ft | 287 kts | 335° |
| 2026-05-07 11:05 | 22.14908 | 113.75412 | 3977 ft | 275 kts | 335° |
| 2026-05-07 11:05 | 22.16612 | 113.74593 | 3758 ft | 258 kts | 335° |
| 2026-05-07 11:06 | 22.18214 | 113.73811 | 3575 ft | 248 kts | 334° |
| 2026-05-07 11:06 | 22.19756 | 113.73053 | 3420 ft | 239 kts | 334° |
| 2026-05-07 11:06 | 22.21218 | 113.72330 | 3214 ft | 223 kts | 333° |
| 2026-05-07 11:06 | 22.22607 | 113.71746 | 3030 ft | 208 kts | 347° |
| 2026-05-07 11:07 | 22.23950 | 113.71884 | 2890 ft | 204 kts | 26° |
| 2026-05-07 11:07 | 22.24685 | 113.72382 | 2833 ft | 203 kts | 40° |
| 2026-05-07 11:07 | 22.25582 | 113.73197 | 2795 ft | 203 kts | 43° |
| 2026-05-07 11:07 | 22.26641 | 113.74207 | 2728 ft | 204 kts | 44° |
| 2026-05-07 11:08 | 22.27677 | 113.75229 | 2529 ft | 199 kts | 46° |
| 2026-05-07 11:08 | 22.28378 | 113.76454 | 2236 ft | 197 kts | 71° |
| 2026-05-07 11:08 | 22.28771 | 113.77849 | 1974 ft | 192 kts | 74° |
| 2026-05-07 11:08 | 22.29236 | 113.79194 | 1717 ft | 190 kts | 72° |
| 2026-05-07 11:09 | 22.29674 | 113.80520 | 1485 ft | 184 kts | 73° |
| 2026-05-07 11:09 | 22.30093 | 113.81824 | 1224 ft | 181 kts | 74° |
| 2026-05-07 11:09 | 22.30494 | 113.83065 | 989 ft | 170 kts | 73° |
| 2026-05-07 11:09 | 22.30868 | 113.84222 | 801 ft | 159 kts | 73° |
| 2026-05-07 11:10 | 22.31223 | 113.85318 | 628 ft | 149 kts | 74° |
| 2026-05-07 11:10 | 22.31557 | 113.86354 | 425 ft | 143 kts | 70° |
| 2026-05-07 11:10 | 22.31885 | 113.87347 | 257 ft | 140 kts | 70° |
| 2026-05-07 11:10 | 22.32202 | 113.88334 | 64 ft | 138 kts | 71° |
| 2026-05-07 11:11 | 22.32498 | 113.89261 | 42 ft | 114 kts | 71° |
| 2026-05-07 11:11 | 22.32697 | 113.89884 | 42 ft | 61 kts | 71° |
| 2026-05-07 11:11 | 22.32805 | 113.90221 | 42 ft | 36 kts | 74° |
| 2026-05-07 11:11 | 22.32817 | 113.90477 | 42 ft | 26 kts | 98° |
| 2026-05-07 11:12 | 22.32804 | 113.90547 | 42 ft | 0 kts | 101° |
| 2026-05-07 11:12 | 22.32802 | 113.90561 | 42 ft | 8 kts | 102° |
| 2026-05-07 11:12 | 22.32786 | 113.90642 | 42 ft | 13 kts | 102° |
| 2026-05-07 11:13 | 22.32791 | 113.90736 | 42 ft | 14 kts | 71° |
| 2026-05-07 11:13 | 22.32826 | 113.90843 | 42 ft | 17 kts | 70° |
| 2026-05-07 11:13 | 22.32866 | 113.90969 | 42 ft | 19 kts | 71° |
| 2026-05-07 11:13 | 22.32913 | 113.91114 | 42 ft | 22 kts | 71° |
| 2026-05-07 11:14 | 22.32965 | 113.91275 | 42 ft | 24 kts | 70° |
| 2026-05-07 11:14 | 22.33023 | 113.91450 | 42 ft | 26 kts | 71° |
| 2026-05-07 11:14 | 22.33071 | 113.91601 | 42 ft | 20 kts | 71° |
| 2026-05-07 11:14 | 22.33118 | 113.91751 | 42 ft | 22 kts | 71° |
| 2026-05-07 11:15 | 22.33171 | 113.91915 | 42 ft | 24 kts | 70° |
| 2026-05-07 11:15 | 22.33211 | 113.92036 | 42 ft | 11 kts | 71° |
| 2026-05-07 11:15 | 22.33205 | 113.92099 | 42 ft | 9 kts | 125° |
| 2026-05-07 11:15 | 22.33143 | 113.92130 | 42 ft | 11 kts | 160° |
| 2026-05-07 11:16 | 22.33060 | 113.92161 | 42 ft | 14 kts | 160° |
| 2026-05-07 11:16 | 22.32961 | 113.92199 | 42 ft | 17 kts | 161° |
| 2026-05-07 11:16 | 22.32845 | 113.92242 | 42 ft | 19 kts | 161° |
| 2026-05-07 11:16 | 22.32712 | 113.92292 | 42 ft | 21 kts | 161° |
| 2026-05-07 11:17 | 22.32567 | 113.92346 | 42 ft | 23 kts | 161° |
| 2026-05-07 11:17 | 22.32431 | 113.92398 | 42 ft | 1 kts | 161° |
| 2026-05-07 11:17 | 22.32430 | 113.92398 | 42 ft | 3 kts | 161° |